<?xml version="1.0" encoding="UTF-8" standalone="no" ?>
<gpx xmlns="http://www.topografix.com/GPX/1/1" xmlns:xsi="http://www.w3.org/2001/XMLSchema-instance" xsi:schemaLocation="http://www.topografix.com/GPX/1/1 http://www.topografix.com/GPX/1/1/gpx.xsd" version="1.1" creator="VisuGPX - https://www.visugpx.com">
  <metadata>
    <name>TOUR DE LA SUISSE NORMANDE 1 THURY HARCOURT - PONT D'OUILLY</name>
    <desc><![CDATA[FAIT]]></desc>
  </metadata>
  <trk>
    <name><![CDATA[T S N  1  THURY -HARCOURT - PONT D'OUILLY-17891301]]></name>
    <trkseg>
      <trkpt lat="48.98581" lon="-0.4771">
        <ele>53</ele>
        <time>2023-11-02T14:32:21Z</time>
      </trkpt>
      <trkpt lat="48.9858" lon="-0.47705">
        <ele>53</ele>
        <time>2023-11-02T14:32:26Z</time>
      </trkpt>
      <trkpt lat="48.98565" lon="-0.47707">
        <ele>53</ele>
        <time>2023-11-02T14:32:46Z</time>
      </trkpt>
      <trkpt lat="48.98557" lon="-0.47716">
        <ele>53</ele>
        <time>2023-11-02T14:32:59Z</time>
      </trkpt>
      <trkpt lat="48.98546" lon="-0.47767">
        <ele>51</ele>
        <time>2023-11-02T14:33:46Z</time>
      </trkpt>
      <trkpt lat="48.98538" lon="-0.47837">
        <ele>49</ele>
        <time>2023-11-02T14:34:48Z</time>
      </trkpt>
      <trkpt lat="48.98527" lon="-0.47852">
        <ele>49</ele>
        <time>2023-11-02T14:35:08Z</time>
      </trkpt>
      <trkpt lat="48.98507" lon="-0.4785">
        <ele>48</ele>
        <time>2023-11-02T14:35:35Z</time>
      </trkpt>
      <trkpt lat="48.98495" lon="-0.47856">
        <ele>47</ele>
        <time>2023-11-02T14:35:51Z</time>
      </trkpt>
      <trkpt lat="48.98475" lon="-0.47842">
        <ele>48</ele>
        <time>2023-11-02T14:36:21Z</time>
      </trkpt>
      <trkpt lat="48.98452" lon="-0.47834">
        <ele>48</ele>
        <time>2023-11-02T14:36:52Z</time>
      </trkpt>
      <trkpt lat="48.984" lon="-0.47837">
        <ele>49</ele>
        <time>2023-11-02T14:38:02Z</time>
      </trkpt>
      <trkpt lat="48.98334" lon="-0.4785">
        <ele>53</ele>
        <time>2023-11-02T14:39:31Z</time>
      </trkpt>
      <trkpt lat="48.98314" lon="-0.47844">
        <ele>53</ele>
        <time>2023-11-02T14:39:58Z</time>
      </trkpt>
      <trkpt lat="48.98251" lon="-0.4784">
        <ele>55</ele>
        <time>2023-11-02T14:41:22Z</time>
      </trkpt>
      <trkpt lat="48.98248" lon="-0.47829">
        <ele>55</ele>
        <time>2023-11-02T14:41:32Z</time>
      </trkpt>
      <trkpt lat="48.98236" lon="-0.47822">
        <ele>56</ele>
        <time>2023-11-02T14:41:50Z</time>
      </trkpt>
      <trkpt lat="48.9816" lon="-0.47747">
        <ele>62</ele>
        <time>2023-11-02T14:43:50Z</time>
      </trkpt>
      <trkpt lat="48.98141" lon="-0.47712">
        <ele>64</ele>
        <time>2023-11-02T14:44:30Z</time>
      </trkpt>
      <trkpt lat="48.98096" lon="-0.47654">
        <ele>67</ele>
        <time>2023-11-02T14:45:49Z</time>
      </trkpt>
      <trkpt lat="48.98056" lon="-0.47617">
        <ele>69</ele>
        <time>2023-11-02T14:46:51Z</time>
      </trkpt>
      <trkpt lat="48.98044" lon="-0.47612">
        <ele>70</ele>
        <time>2023-11-02T14:47:08Z</time>
      </trkpt>
      <trkpt lat="48.98035" lon="-0.47615">
        <ele>70</ele>
        <time>2023-11-02T14:47:20Z</time>
      </trkpt>
      <trkpt lat="48.98034" lon="-0.47609">
        <ele>70</ele>
        <time>2023-11-02T14:47:26Z</time>
      </trkpt>
      <trkpt lat="48.98054" lon="-0.47599">
        <ele>69</ele>
        <time>2023-11-02T14:47:54Z</time>
      </trkpt>
      <trkpt lat="48.98055" lon="-0.47595">
        <ele>69</ele>
        <time>2023-11-02T14:47:57Z</time>
      </trkpt>
      <trkpt lat="48.98044" lon="-0.47579">
        <ele>70</ele>
        <time>2023-11-02T14:48:18Z</time>
      </trkpt>
      <trkpt lat="48.98022" lon="-0.47567">
        <ele>70</ele>
        <time>2023-11-02T14:48:49Z</time>
      </trkpt>
      <trkpt lat="48.97979" lon="-0.4756">
        <ele>71</ele>
        <time>2023-11-02T14:49:47Z</time>
      </trkpt>
      <trkpt lat="48.9796" lon="-0.4755">
        <ele>72</ele>
        <time>2023-11-02T14:50:13Z</time>
      </trkpt>
      <trkpt lat="48.97898" lon="-0.47532">
        <ele>72</ele>
        <time>2023-11-02T14:51:38Z</time>
      </trkpt>
      <trkpt lat="48.97851" lon="-0.4751">
        <ele>71</ele>
        <time>2023-11-02T14:52:43Z</time>
      </trkpt>
      <trkpt lat="48.97836" lon="-0.47493">
        <ele>71</ele>
        <time>2023-11-02T14:53:08Z</time>
      </trkpt>
      <trkpt lat="48.97827" lon="-0.47472">
        <ele>71</ele>
        <time>2023-11-02T14:53:30Z</time>
      </trkpt>
      <trkpt lat="48.97826" lon="-0.47447">
        <ele>72</ele>
        <time>2023-11-02T14:53:52Z</time>
      </trkpt>
      <trkpt lat="48.97814" lon="-0.47402">
        <ele>73</ele>
        <time>2023-11-02T14:54:35Z</time>
      </trkpt>
      <trkpt lat="48.97801" lon="-0.47326">
        <ele>75</ele>
        <time>2023-11-02T14:55:43Z</time>
      </trkpt>
      <trkpt lat="48.97825" lon="-0.47202">
        <ele>79</ele>
        <time>2023-11-02T14:57:37Z</time>
      </trkpt>
      <trkpt lat="48.9782" lon="-0.4719">
        <ele>80</ele>
        <time>2023-11-02T14:57:49Z</time>
      </trkpt>
      <trkpt lat="48.97801" lon="-0.47183">
        <ele>80</ele>
        <time>2023-11-02T14:58:15Z</time>
      </trkpt>
      <trkpt lat="48.97785" lon="-0.47168">
        <ele>81</ele>
        <time>2023-11-02T14:58:40Z</time>
      </trkpt>
      <trkpt lat="48.97763" lon="-0.47161">
        <ele>81</ele>
        <time>2023-11-02T14:59:10Z</time>
      </trkpt>
      <trkpt lat="48.97722" lon="-0.47131">
        <ele>83</ele>
        <time>2023-11-02T15:00:11Z</time>
      </trkpt>
      <trkpt lat="48.97696" lon="-0.47119">
        <ele>84</ele>
        <time>2023-11-02T15:00:47Z</time>
      </trkpt>
      <trkpt lat="48.97643" lon="-0.4711">
        <ele>86</ele>
        <time>2023-11-02T15:01:58Z</time>
      </trkpt>
      <trkpt lat="48.97604" lon="-0.4712">
        <ele>88</ele>
        <time>2023-11-02T15:02:51Z</time>
      </trkpt>
      <trkpt lat="48.97566" lon="-0.4712">
        <ele>89</ele>
        <time>2023-11-02T15:03:42Z</time>
      </trkpt>
      <trkpt lat="48.97531" lon="-0.4711">
        <ele>90</ele>
        <time>2023-11-02T15:04:29Z</time>
      </trkpt>
      <trkpt lat="48.97484" lon="-0.47075">
        <ele>93</ele>
        <time>2023-11-02T15:05:39Z</time>
      </trkpt>
      <trkpt lat="48.9745" lon="-0.47064">
        <ele>94</ele>
        <time>2023-11-02T15:06:26Z</time>
      </trkpt>
      <trkpt lat="48.97371" lon="-0.47019">
        <ele>94</ele>
        <time>2023-11-02T15:08:18Z</time>
      </trkpt>
      <trkpt lat="48.97328" lon="-0.47013">
        <ele>92</ele>
        <time>2023-11-02T15:09:16Z</time>
      </trkpt>
      <trkpt lat="48.97276" lon="-0.46986">
        <ele>90</ele>
        <time>2023-11-02T15:10:29Z</time>
      </trkpt>
      <trkpt lat="48.97259" lon="-0.4699">
        <ele>89</ele>
        <time>2023-11-02T15:10:52Z</time>
      </trkpt>
      <trkpt lat="48.972" lon="-0.47016">
        <ele>90</ele>
        <time>2023-11-02T15:12:14Z</time>
      </trkpt>
      <trkpt lat="48.97184" lon="-0.47019">
        <ele>90</ele>
        <time>2023-11-02T15:12:35Z</time>
      </trkpt>
      <trkpt lat="48.97175" lon="-0.47009">
        <ele>91</ele>
        <time>2023-11-02T15:12:50Z</time>
      </trkpt>
      <trkpt lat="48.97168" lon="-0.46942">
        <ele>94</ele>
        <time>2023-11-02T15:13:50Z</time>
      </trkpt>
      <trkpt lat="48.97157" lon="-0.46931">
        <ele>95</ele>
        <time>2023-11-02T15:14:07Z</time>
      </trkpt>
      <trkpt lat="48.97105" lon="-0.46955">
        <ele>97</ele>
        <time>2023-11-02T15:15:20Z</time>
      </trkpt>
      <trkpt lat="48.97054" lon="-0.46966">
        <ele>98</ele>
        <time>2023-11-02T15:16:29Z</time>
      </trkpt>
      <trkpt lat="48.96955" lon="-0.47007">
        <ele>98</ele>
        <time>2023-11-02T15:18:45Z</time>
      </trkpt>
      <trkpt lat="48.96938" lon="-0.47006">
        <ele>98</ele>
        <time>2023-11-02T15:19:08Z</time>
      </trkpt>
      <trkpt lat="48.9691" lon="-0.47011">
        <ele>98</ele>
        <time>2023-11-02T15:19:46Z</time>
      </trkpt>
      <trkpt lat="48.96864" lon="-0.4702">
        <ele>97</ele>
        <time>2023-11-02T15:20:48Z</time>
      </trkpt>
      <trkpt lat="48.96836" lon="-0.47031">
        <ele>97</ele>
        <time>2023-11-02T15:21:26Z</time>
      </trkpt>
      <trkpt lat="48.96795" lon="-0.47038">
        <ele>97</ele>
        <time>2023-11-02T15:22:21Z</time>
      </trkpt>
      <trkpt lat="48.96686" lon="-0.4704">
        <ele>99</ele>
        <time>2023-11-02T15:24:47Z</time>
      </trkpt>
      <trkpt lat="48.96674" lon="-0.47049">
        <ele>99</ele>
        <time>2023-11-02T15:25:05Z</time>
      </trkpt>
      <trkpt lat="48.96644" lon="-0.47057">
        <ele>95</ele>
        <time>2023-11-02T15:25:45Z</time>
      </trkpt>
      <trkpt lat="48.96629" lon="-0.47046">
        <ele>92</ele>
        <time>2023-11-02T15:26:08Z</time>
      </trkpt>
      <trkpt lat="48.96612" lon="-0.47048">
        <ele>89</ele>
        <time>2023-11-02T15:26:30Z</time>
      </trkpt>
      <trkpt lat="48.96605" lon="-0.47041">
        <ele>87</ele>
        <time>2023-11-02T15:26:41Z</time>
      </trkpt>
      <trkpt lat="48.966" lon="-0.47025">
        <ele>87</ele>
        <time>2023-11-02T15:26:57Z</time>
      </trkpt>
      <trkpt lat="48.96603" lon="-0.47013">
        <ele>87</ele>
        <time>2023-11-02T15:27:08Z</time>
      </trkpt>
      <trkpt lat="48.96599" lon="-0.47001">
        <ele>87</ele>
        <time>2023-11-02T15:27:20Z</time>
      </trkpt>
      <trkpt lat="48.96603" lon="-0.46978">
        <ele>90</ele>
        <time>2023-11-02T15:27:41Z</time>
      </trkpt>
      <trkpt lat="48.96576" lon="-0.46918">
        <ele>92</ele>
        <time>2023-11-02T15:28:45Z</time>
      </trkpt>
      <trkpt lat="48.96568" lon="-0.46905">
        <ele>91</ele>
        <time>2023-11-02T15:29:00Z</time>
      </trkpt>
      <trkpt lat="48.96557" lon="-0.46898">
        <ele>90</ele>
        <time>2023-11-02T15:29:16Z</time>
      </trkpt>
      <trkpt lat="48.96541" lon="-0.46873">
        <ele>90</ele>
        <time>2023-11-02T15:29:47Z</time>
      </trkpt>
      <trkpt lat="48.96531" lon="-0.46869">
        <ele>89</ele>
        <time>2023-11-02T15:30:00Z</time>
      </trkpt>
      <trkpt lat="48.96519" lon="-0.4687">
        <ele>87</ele>
        <time>2023-11-02T15:30:17Z</time>
      </trkpt>
      <trkpt lat="48.96485" lon="-0.46843">
        <ele>87</ele>
        <time>2023-11-02T15:31:08Z</time>
      </trkpt>
      <trkpt lat="48.96471" lon="-0.46841">
        <ele>87</ele>
        <time>2023-11-02T15:31:26Z</time>
      </trkpt>
      <trkpt lat="48.96463" lon="-0.46825">
        <ele>88</ele>
        <time>2023-11-02T15:31:44Z</time>
      </trkpt>
      <trkpt lat="48.96462" lon="-0.46811">
        <ele>88</ele>
        <time>2023-11-02T15:31:56Z</time>
      </trkpt>
      <trkpt lat="48.96442" lon="-0.46785">
        <ele>89</ele>
        <time>2023-11-02T15:32:31Z</time>
      </trkpt>
      <trkpt lat="48.96433" lon="-0.46758">
        <ele>90</ele>
        <time>2023-11-02T15:32:58Z</time>
      </trkpt>
      <trkpt lat="48.96433" lon="-0.46719">
        <ele>91</ele>
        <time>2023-11-02T15:33:32Z</time>
      </trkpt>
      <trkpt lat="48.96424" lon="-0.46742">
        <ele>90</ele>
        <time>2023-11-02T15:33:56Z</time>
      </trkpt>
      <trkpt lat="48.96423" lon="-0.46756">
        <ele>89</ele>
        <time>2023-11-02T15:34:08Z</time>
      </trkpt>
      <trkpt lat="48.96436" lon="-0.468">
        <ele>88</ele>
        <time>2023-11-02T15:34:50Z</time>
      </trkpt>
      <trkpt lat="48.96436" lon="-0.46848">
        <ele>86</ele>
        <time>2023-11-02T15:35:32Z</time>
      </trkpt>
      <trkpt lat="48.9644" lon="-0.4686">
        <ele>85</ele>
        <time>2023-11-02T15:35:44Z</time>
      </trkpt>
      <trkpt lat="48.96447" lon="-0.46874">
        <ele>85</ele>
        <time>2023-11-02T15:36:00Z</time>
      </trkpt>
      <trkpt lat="48.9647" lon="-0.46892">
        <ele>83</ele>
        <time>2023-11-02T15:36:34Z</time>
      </trkpt>
      <trkpt lat="48.96487" lon="-0.46913">
        <ele>79</ele>
        <time>2023-11-02T15:37:03Z</time>
      </trkpt>
      <trkpt lat="48.96499" lon="-0.46914">
        <ele>78</ele>
        <time>2023-11-02T15:37:19Z</time>
      </trkpt>
      <trkpt lat="48.96516" lon="-0.46929">
        <ele>80</ele>
        <time>2023-11-02T15:37:45Z</time>
      </trkpt>
      <trkpt lat="48.96543" lon="-0.46995">
        <ele>79</ele>
        <time>2023-11-02T15:38:54Z</time>
      </trkpt>
      <trkpt lat="48.96538" lon="-0.47034">
        <ele>76</ele>
        <time>2023-11-02T15:39:28Z</time>
      </trkpt>
      <trkpt lat="48.96541" lon="-0.47079">
        <ele>75</ele>
        <time>2023-11-02T15:40:08Z</time>
      </trkpt>
      <trkpt lat="48.96525" lon="-0.47153">
        <ele>66</ele>
        <time>2023-11-02T15:41:16Z</time>
      </trkpt>
      <trkpt lat="48.96518" lon="-0.4723">
        <ele>60</ele>
        <time>2023-11-02T15:42:24Z</time>
      </trkpt>
      <trkpt lat="48.96502" lon="-0.47335">
        <ele>52</ele>
        <time>2023-11-02T15:43:59Z</time>
      </trkpt>
      <trkpt lat="48.96509" lon="-0.47407">
        <ele>48</ele>
        <time>2023-11-02T15:45:03Z</time>
      </trkpt>
      <trkpt lat="48.96518" lon="-0.47449">
        <ele>46</ele>
        <time>2023-11-02T15:45:41Z</time>
      </trkpt>
      <trkpt lat="48.96531" lon="-0.4748">
        <ele>44</ele>
        <time>2023-11-02T15:46:14Z</time>
      </trkpt>
      <trkpt lat="48.96541" lon="-0.47492">
        <ele>44</ele>
        <time>2023-11-02T15:46:31Z</time>
      </trkpt>
      <trkpt lat="48.96525" lon="-0.47491">
        <ele>42</ele>
        <time>2023-11-02T15:46:52Z</time>
      </trkpt>
      <trkpt lat="48.96465" lon="-0.47473">
        <ele>41</ele>
        <time>2023-11-02T15:48:14Z</time>
      </trkpt>
      <trkpt lat="48.96419" lon="-0.4749">
        <ele>39</ele>
        <time>2023-11-02T15:49:17Z</time>
      </trkpt>
      <trkpt lat="48.96346" lon="-0.47488">
        <ele>40</ele>
        <time>2023-11-02T15:50:54Z</time>
      </trkpt>
      <trkpt lat="48.96335" lon="-0.47494">
        <ele>39</ele>
        <time>2023-11-02T15:51:10Z</time>
      </trkpt>
      <trkpt lat="48.96298" lon="-0.47502">
        <ele>44</ele>
        <time>2023-11-02T15:52:00Z</time>
      </trkpt>
      <trkpt lat="48.96281" lon="-0.4752">
        <ele>43</ele>
        <time>2023-11-02T15:52:27Z</time>
      </trkpt>
      <trkpt lat="48.96263" lon="-0.47512">
        <ele>48</ele>
        <time>2023-11-02T15:52:52Z</time>
      </trkpt>
      <trkpt lat="48.96227" lon="-0.47522">
        <ele>52</ele>
        <time>2023-11-02T15:53:41Z</time>
      </trkpt>
      <trkpt lat="48.96204" lon="-0.47516">
        <ele>58</ele>
        <time>2023-11-02T15:54:12Z</time>
      </trkpt>
      <trkpt lat="48.96199" lon="-0.47521">
        <ele>58</ele>
        <time>2023-11-02T15:54:20Z</time>
      </trkpt>
      <trkpt lat="48.96202" lon="-0.47527">
        <ele>56</ele>
        <time>2023-11-02T15:54:27Z</time>
      </trkpt>
      <trkpt lat="48.9618" lon="-0.47516">
        <ele>63</ele>
        <time>2023-11-02T15:54:58Z</time>
      </trkpt>
      <trkpt lat="48.96156" lon="-0.47513">
        <ele>67</ele>
        <time>2023-11-02T15:55:30Z</time>
      </trkpt>
      <trkpt lat="48.96142" lon="-0.47518">
        <ele>68</ele>
        <time>2023-11-02T15:55:49Z</time>
      </trkpt>
      <trkpt lat="48.96142" lon="-0.47512">
        <ele>69</ele>
        <time>2023-11-02T15:55:54Z</time>
      </trkpt>
      <trkpt lat="48.96138" lon="-0.47511">
        <ele>70</ele>
        <time>2023-11-02T15:56:00Z</time>
      </trkpt>
      <trkpt lat="48.96102" lon="-0.47538">
        <ele>70</ele>
        <time>2023-11-02T15:56:53Z</time>
      </trkpt>
      <trkpt lat="48.96093" lon="-0.4754">
        <ele>71</ele>
        <time>2023-11-02T15:57:05Z</time>
      </trkpt>
      <trkpt lat="48.96085" lon="-0.47534">
        <ele>73</ele>
        <time>2023-11-02T15:57:17Z</time>
      </trkpt>
      <trkpt lat="48.9608" lon="-0.47536">
        <ele>73</ele>
        <time>2023-11-02T15:57:24Z</time>
      </trkpt>
      <trkpt lat="48.96083" lon="-0.47517">
        <ele>76</ele>
        <time>2023-11-02T15:57:41Z</time>
      </trkpt>
      <trkpt lat="48.96094" lon="-0.475">
        <ele>77</ele>
        <time>2023-11-02T15:58:02Z</time>
      </trkpt>
      <trkpt lat="48.96102" lon="-0.47471">
        <ele>78</ele>
        <time>2023-11-02T15:58:30Z</time>
      </trkpt>
      <trkpt lat="48.96091" lon="-0.47424">
        <ele>82</ele>
        <time>2023-11-02T15:59:13Z</time>
      </trkpt>
      <trkpt lat="48.9609" lon="-0.47391">
        <ele>83</ele>
        <time>2023-11-02T15:59:42Z</time>
      </trkpt>
      <trkpt lat="48.96081" lon="-0.47362">
        <ele>85</ele>
        <time>2023-11-02T16:00:11Z</time>
      </trkpt>
      <trkpt lat="48.96074" lon="-0.47235">
        <ele>88</ele>
        <time>2023-11-02T16:02:02Z</time>
      </trkpt>
      <trkpt lat="48.96074" lon="-0.47123">
        <ele>93</ele>
        <time>2023-11-02T16:03:40Z</time>
      </trkpt>
      <trkpt lat="48.96111" lon="-0.46904">
        <ele>104</ele>
        <time>2023-11-02T16:06:58Z</time>
      </trkpt>
      <trkpt lat="48.96111" lon="-0.4687">
        <ele>106</ele>
        <time>2023-11-02T16:07:28Z</time>
      </trkpt>
      <trkpt lat="48.96127" lon="-0.4681">
        <ele>109</ele>
        <time>2023-11-02T16:08:25Z</time>
      </trkpt>
      <trkpt lat="48.9612" lon="-0.46801">
        <ele>109</ele>
        <time>2023-11-02T16:08:37Z</time>
      </trkpt>
      <trkpt lat="48.96126" lon="-0.46809">
        <ele>109</ele>
        <time>2023-11-02T16:08:48Z</time>
      </trkpt>
      <trkpt lat="48.9614" lon="-0.46764">
        <ele>110</ele>
        <time>2023-11-02T16:09:31Z</time>
      </trkpt>
      <trkpt lat="48.96141" lon="-0.46705">
        <ele>112</ele>
        <time>2023-11-02T16:10:23Z</time>
      </trkpt>
      <trkpt lat="48.96138" lon="-0.46698">
        <ele>112</ele>
        <time>2023-11-02T16:10:31Z</time>
      </trkpt>
      <trkpt lat="48.96126" lon="-0.46708">
        <ele>112</ele>
        <time>2023-11-02T16:10:49Z</time>
      </trkpt>
      <trkpt lat="48.96094" lon="-0.46778">
        <ele>112</ele>
        <time>2023-11-02T16:12:04Z</time>
      </trkpt>
      <trkpt lat="48.96089" lon="-0.46768">
        <ele>112</ele>
        <time>2023-11-02T16:12:15Z</time>
      </trkpt>
      <trkpt lat="48.96076" lon="-0.46778">
        <ele>111</ele>
        <time>2023-11-02T16:12:34Z</time>
      </trkpt>
      <trkpt lat="48.96068" lon="-0.46794">
        <ele>110</ele>
        <time>2023-11-02T16:12:52Z</time>
      </trkpt>
      <trkpt lat="48.96066" lon="-0.46808">
        <ele>110</ele>
        <time>2023-11-02T16:13:04Z</time>
      </trkpt>
      <trkpt lat="48.96055" lon="-0.46825">
        <ele>108</ele>
        <time>2023-11-02T16:13:25Z</time>
      </trkpt>
      <trkpt lat="48.96035" lon="-0.46849">
        <ele>106</ele>
        <time>2023-11-02T16:13:59Z</time>
      </trkpt>
      <trkpt lat="48.96015" lon="-0.46865">
        <ele>104</ele>
        <time>2023-11-02T16:14:29Z</time>
      </trkpt>
      <trkpt lat="48.95977" lon="-0.46911">
        <ele>100</ele>
        <time>2023-11-02T16:15:34Z</time>
      </trkpt>
      <trkpt lat="48.95884" lon="-0.47033">
        <ele>90</ele>
        <time>2023-11-02T16:18:18Z</time>
      </trkpt>
      <trkpt lat="48.95867" lon="-0.4707">
        <ele>88</ele>
        <time>2023-11-02T16:18:57Z</time>
      </trkpt>
      <trkpt lat="48.95817" lon="-0.47127">
        <ele>84</ele>
        <time>2023-11-02T16:20:21Z</time>
      </trkpt>
      <trkpt lat="48.95803" lon="-0.47141">
        <ele>83</ele>
        <time>2023-11-02T16:20:43Z</time>
      </trkpt>
      <trkpt lat="48.95765" lon="-0.47167">
        <ele>80</ele>
        <time>2023-11-02T16:21:39Z</time>
      </trkpt>
      <trkpt lat="48.9572" lon="-0.47188">
        <ele>82</ele>
        <time>2023-11-02T16:22:41Z</time>
      </trkpt>
      <trkpt lat="48.957" lon="-0.47196">
        <ele>82</ele>
        <time>2023-11-02T16:23:09Z</time>
      </trkpt>
      <trkpt lat="48.95672" lon="-0.47194">
        <ele>81</ele>
        <time>2023-11-02T16:23:46Z</time>
      </trkpt>
      <trkpt lat="48.9566" lon="-0.47205">
        <ele>81</ele>
        <time>2023-11-02T16:24:05Z</time>
      </trkpt>
      <trkpt lat="48.95646" lon="-0.47233">
        <ele>78</ele>
        <time>2023-11-02T16:24:36Z</time>
      </trkpt>
      <trkpt lat="48.95604" lon="-0.47296">
        <ele>67</ele>
        <time>2023-11-02T16:25:55Z</time>
      </trkpt>
      <trkpt lat="48.9558" lon="-0.47288">
        <ele>63</ele>
        <time>2023-11-02T16:26:27Z</time>
      </trkpt>
      <trkpt lat="48.9557" lon="-0.47297">
        <ele>62</ele>
        <time>2023-11-02T16:26:43Z</time>
      </trkpt>
      <trkpt lat="48.95564" lon="-0.47297">
        <ele>62</ele>
        <time>2023-11-02T16:26:51Z</time>
      </trkpt>
      <trkpt lat="48.9555" lon="-0.47285">
        <ele>63</ele>
        <time>2023-11-02T16:27:12Z</time>
      </trkpt>
      <trkpt lat="48.95535" lon="-0.47284">
        <ele>63</ele>
        <time>2023-11-02T16:27:32Z</time>
      </trkpt>
      <trkpt lat="48.9552" lon="-0.47271">
        <ele>64</ele>
        <time>2023-11-02T16:27:55Z</time>
      </trkpt>
      <trkpt lat="48.95482" lon="-0.4725">
        <ele>65</ele>
        <time>2023-11-02T16:28:49Z</time>
      </trkpt>
      <trkpt lat="48.95476" lon="-0.47245">
        <ele>66</ele>
        <time>2023-11-02T16:28:58Z</time>
      </trkpt>
      <trkpt lat="48.95478" lon="-0.47237">
        <ele>67</ele>
        <time>2023-11-02T16:29:06Z</time>
      </trkpt>
      <trkpt lat="48.95453" lon="-0.4721">
        <ele>70</ele>
        <time>2023-11-02T16:29:47Z</time>
      </trkpt>
      <trkpt lat="48.95437" lon="-0.47186">
        <ele>70</ele>
        <time>2023-11-02T16:30:17Z</time>
      </trkpt>
      <trkpt lat="48.95399" lon="-0.4721">
        <ele>68</ele>
        <time>2023-11-02T16:31:12Z</time>
      </trkpt>
      <trkpt lat="48.9537" lon="-0.47223">
        <ele>70</ele>
        <time>2023-11-02T16:31:52Z</time>
      </trkpt>
      <trkpt lat="48.95337" lon="-0.47232">
        <ele>73</ele>
        <time>2023-11-02T16:32:37Z</time>
      </trkpt>
      <trkpt lat="48.95287" lon="-0.47278">
        <ele>79</ele>
        <time>2023-11-02T16:33:55Z</time>
      </trkpt>
      <trkpt lat="48.9529" lon="-0.47286">
        <ele>79</ele>
        <time>2023-11-02T16:34:03Z</time>
      </trkpt>
      <trkpt lat="48.95275" lon="-0.47292">
        <ele>81</ele>
        <time>2023-11-02T16:34:24Z</time>
      </trkpt>
      <trkpt lat="48.95249" lon="-0.47314">
        <ele>84</ele>
        <time>2023-11-02T16:35:03Z</time>
      </trkpt>
      <trkpt lat="48.95226" lon="-0.47313">
        <ele>87</ele>
        <time>2023-11-02T16:35:34Z</time>
      </trkpt>
      <trkpt lat="48.95197" lon="-0.4733">
        <ele>92</ele>
        <time>2023-11-02T16:36:15Z</time>
      </trkpt>
      <trkpt lat="48.95154" lon="-0.47381">
        <ele>96</ele>
        <time>2023-11-02T16:37:28Z</time>
      </trkpt>
      <trkpt lat="48.95117" lon="-0.47442">
        <ele>91</ele>
        <time>2023-11-02T16:38:41Z</time>
      </trkpt>
      <trkpt lat="48.95107" lon="-0.47448">
        <ele>90</ele>
        <time>2023-11-02T16:38:55Z</time>
      </trkpt>
      <trkpt lat="48.95087" lon="-0.47445">
        <ele>89</ele>
        <time>2023-11-02T16:39:22Z</time>
      </trkpt>
      <trkpt lat="48.95069" lon="-0.47429">
        <ele>86</ele>
        <time>2023-11-02T16:39:50Z</time>
      </trkpt>
      <trkpt lat="48.95067" lon="-0.47453">
        <ele>83</ele>
        <time>2023-11-02T16:40:11Z</time>
      </trkpt>
      <trkpt lat="48.95065" lon="-0.47456">
        <ele>82</ele>
        <time>2023-11-02T16:40:15Z</time>
      </trkpt>
      <trkpt lat="48.95059" lon="-0.47454">
        <ele>81</ele>
        <time>2023-11-02T16:40:23Z</time>
      </trkpt>
      <trkpt lat="48.95045" lon="-0.47435">
        <ele>79</ele>
        <time>2023-11-02T16:40:48Z</time>
      </trkpt>
      <trkpt lat="48.95043" lon="-0.47406">
        <ele>81</ele>
        <time>2023-11-02T16:41:14Z</time>
      </trkpt>
      <trkpt lat="48.95026" lon="-0.47363">
        <ele>79</ele>
        <time>2023-11-02T16:41:58Z</time>
      </trkpt>
      <trkpt lat="48.95012" lon="-0.47341">
        <ele>77</ele>
        <time>2023-11-02T16:42:24Z</time>
      </trkpt>
      <trkpt lat="48.94973" lon="-0.473">
        <ele>76</ele>
        <time>2023-11-02T16:43:28Z</time>
      </trkpt>
      <trkpt lat="48.9496" lon="-0.47293">
        <ele>74</ele>
        <time>2023-11-02T16:43:46Z</time>
      </trkpt>
      <trkpt lat="48.94941" lon="-0.4729">
        <ele>71</ele>
        <time>2023-11-02T16:44:12Z</time>
      </trkpt>
      <trkpt lat="48.9491" lon="-0.47299">
        <ele>67</ele>
        <time>2023-11-02T16:44:54Z</time>
      </trkpt>
      <trkpt lat="48.94876" lon="-0.47343">
        <ele>73</ele>
        <time>2023-11-02T16:45:53Z</time>
      </trkpt>
      <trkpt lat="48.94828" lon="-0.47392">
        <ele>83</ele>
        <time>2023-11-02T16:47:10Z</time>
      </trkpt>
      <trkpt lat="48.94819" lon="-0.47393">
        <ele>83</ele>
        <time>2023-11-02T16:47:22Z</time>
      </trkpt>
      <trkpt lat="48.94808" lon="-0.47386">
        <ele>84</ele>
        <time>2023-11-02T16:47:38Z</time>
      </trkpt>
      <trkpt lat="48.94788" lon="-0.47383">
        <ele>86</ele>
        <time>2023-11-02T16:48:05Z</time>
      </trkpt>
      <trkpt lat="48.94778" lon="-0.47397">
        <ele>87</ele>
        <time>2023-11-02T16:48:23Z</time>
      </trkpt>
      <trkpt lat="48.94776" lon="-0.47392">
        <ele>87</ele>
        <time>2023-11-02T16:48:28Z</time>
      </trkpt>
      <trkpt lat="48.94766" lon="-0.47389">
        <ele>88</ele>
        <time>2023-11-02T16:48:42Z</time>
      </trkpt>
      <trkpt lat="48.94744" lon="-0.47412">
        <ele>89</ele>
        <time>2023-11-02T16:49:18Z</time>
      </trkpt>
      <trkpt lat="48.94722" lon="-0.47426">
        <ele>90</ele>
        <time>2023-11-02T16:49:49Z</time>
      </trkpt>
      <trkpt lat="48.94706" lon="-0.47462">
        <ele>91</ele>
        <time>2023-11-02T16:50:28Z</time>
      </trkpt>
      <trkpt lat="48.94675" lon="-0.47466">
        <ele>91</ele>
        <time>2023-11-02T16:51:09Z</time>
      </trkpt>
      <trkpt lat="48.94667" lon="-0.47473">
        <ele>91</ele>
        <time>2023-11-02T16:51:21Z</time>
      </trkpt>
      <trkpt lat="48.94648" lon="-0.47477">
        <ele>93</ele>
        <time>2023-11-02T16:51:47Z</time>
      </trkpt>
      <trkpt lat="48.94638" lon="-0.47462">
        <ele>95</ele>
        <time>2023-11-02T16:52:06Z</time>
      </trkpt>
      <trkpt lat="48.94636" lon="-0.47442">
        <ele>96</ele>
        <time>2023-11-02T16:52:23Z</time>
      </trkpt>
      <trkpt lat="48.94629" lon="-0.47423">
        <ele>97</ele>
        <time>2023-11-02T16:52:42Z</time>
      </trkpt>
      <trkpt lat="48.94627" lon="-0.47381">
        <ele>101</ele>
        <time>2023-11-02T16:53:19Z</time>
      </trkpt>
      <trkpt lat="48.94648" lon="-0.47359">
        <ele>100</ele>
        <time>2023-11-02T16:53:53Z</time>
      </trkpt>
      <trkpt lat="48.94659" lon="-0.47331">
        <ele>101</ele>
        <time>2023-11-02T16:54:22Z</time>
      </trkpt>
      <trkpt lat="48.94666" lon="-0.47327">
        <ele>100</ele>
        <time>2023-11-02T16:54:32Z</time>
      </trkpt>
      <trkpt lat="48.94666" lon="-0.47321">
        <ele>101</ele>
        <time>2023-11-02T16:54:37Z</time>
      </trkpt>
      <trkpt lat="48.94665" lon="-0.47334">
        <ele>100</ele>
        <time>2023-11-02T16:54:49Z</time>
      </trkpt>
      <trkpt lat="48.94663" lon="-0.47329">
        <ele>101</ele>
        <time>2023-11-02T16:54:54Z</time>
      </trkpt>
      <trkpt lat="48.94662" lon="-0.47333">
        <ele>101</ele>
        <time>2023-11-02T16:54:58Z</time>
      </trkpt>
      <trkpt lat="48.94644" lon="-0.47328">
        <ele>103</ele>
        <time>2023-11-02T16:55:22Z</time>
      </trkpt>
      <trkpt lat="48.94619" lon="-0.4734">
        <ele>105</ele>
        <time>2023-11-02T16:55:57Z</time>
      </trkpt>
      <trkpt lat="48.94603" lon="-0.47356">
        <ele>106</ele>
        <time>2023-11-02T16:56:23Z</time>
      </trkpt>
      <trkpt lat="48.94583" lon="-0.47368">
        <ele>108</ele>
        <time>2023-11-02T16:56:51Z</time>
      </trkpt>
      <trkpt lat="48.94572" lon="-0.47364">
        <ele>109</ele>
        <time>2023-11-02T16:57:06Z</time>
      </trkpt>
      <trkpt lat="48.94563" lon="-0.47334">
        <ele>112</ele>
        <time>2023-11-02T16:57:35Z</time>
      </trkpt>
      <trkpt lat="48.94562" lon="-0.4731">
        <ele>113</ele>
        <time>2023-11-02T16:57:56Z</time>
      </trkpt>
      <trkpt lat="48.94566" lon="-0.47294">
        <ele>112</ele>
        <time>2023-11-02T16:58:11Z</time>
      </trkpt>
      <trkpt lat="48.94556" lon="-0.47245">
        <ele>114</ele>
        <time>2023-11-02T16:58:56Z</time>
      </trkpt>
      <trkpt lat="48.94516" lon="-0.47113">
        <ele>116</ele>
        <time>2023-11-02T17:01:04Z</time>
      </trkpt>
      <trkpt lat="48.94516" lon="-0.47079">
        <ele>115</ele>
        <time>2023-11-02T17:01:33Z</time>
      </trkpt>
      <trkpt lat="48.94504" lon="-0.46987">
        <ele>111</ele>
        <time>2023-11-02T17:02:56Z</time>
      </trkpt>
      <trkpt lat="48.94482" lon="-0.46963">
        <ele>110</ele>
        <time>2023-11-02T17:03:32Z</time>
      </trkpt>
      <trkpt lat="48.94431" lon="-0.46932">
        <ele>110</ele>
        <time>2023-11-02T17:04:45Z</time>
      </trkpt>
      <trkpt lat="48.94407" lon="-0.46903">
        <ele>110</ele>
        <time>2023-11-02T17:05:26Z</time>
      </trkpt>
      <trkpt lat="48.94338" lon="-0.46848">
        <ele>113</ele>
        <time>2023-11-02T17:07:10Z</time>
      </trkpt>
      <trkpt lat="48.94286" lon="-0.46823">
        <ele>116</ele>
        <time>2023-11-02T17:08:23Z</time>
      </trkpt>
      <trkpt lat="48.9428" lon="-0.46815">
        <ele>116</ele>
        <time>2023-11-02T17:08:33Z</time>
      </trkpt>
      <trkpt lat="48.94272" lon="-0.46747">
        <ele>111</ele>
        <time>2023-11-02T17:09:34Z</time>
      </trkpt>
      <trkpt lat="48.94281" lon="-0.46712">
        <ele>106</ele>
        <time>2023-11-02T17:10:07Z</time>
      </trkpt>
      <trkpt lat="48.94275" lon="-0.46678">
        <ele>103</ele>
        <time>2023-11-02T17:10:38Z</time>
      </trkpt>
      <trkpt lat="48.9428" lon="-0.4665">
        <ele>99</ele>
        <time>2023-11-02T17:11:03Z</time>
      </trkpt>
      <trkpt lat="48.94278" lon="-0.46623">
        <ele>98</ele>
        <time>2023-11-02T17:11:27Z</time>
      </trkpt>
      <trkpt lat="48.94274" lon="-0.46595">
        <ele>96</ele>
        <time>2023-11-02T17:11:52Z</time>
      </trkpt>
      <trkpt lat="48.94263" lon="-0.46569">
        <ele>96</ele>
        <time>2023-11-02T17:12:19Z</time>
      </trkpt>
      <trkpt lat="48.94242" lon="-0.46489">
        <ele>94</ele>
        <time>2023-11-02T17:13:35Z</time>
      </trkpt>
      <trkpt lat="48.94232" lon="-0.46474">
        <ele>96</ele>
        <time>2023-11-02T17:13:53Z</time>
      </trkpt>
      <trkpt lat="48.94197" lon="-0.4648">
        <ele>99</ele>
        <time>2023-11-02T17:14:40Z</time>
      </trkpt>
      <trkpt lat="48.9418" lon="-0.46476">
        <ele>101</ele>
        <time>2023-11-02T17:15:03Z</time>
      </trkpt>
      <trkpt lat="48.94156" lon="-0.46435">
        <ele>102</ele>
        <time>2023-11-02T17:15:52Z</time>
      </trkpt>
      <trkpt lat="48.94161" lon="-0.4642">
        <ele>99</ele>
        <time>2023-11-02T17:16:06Z</time>
      </trkpt>
      <trkpt lat="48.94151" lon="-0.4638">
        <ele>101</ele>
        <time>2023-11-02T17:16:44Z</time>
      </trkpt>
      <trkpt lat="48.94151" lon="-0.46349">
        <ele>100</ele>
        <time>2023-11-02T17:17:11Z</time>
      </trkpt>
      <trkpt lat="48.94144" lon="-0.46333">
        <ele>101</ele>
        <time>2023-11-02T17:17:28Z</time>
      </trkpt>
      <trkpt lat="48.9413" lon="-0.46316">
        <ele>105</ele>
        <time>2023-11-02T17:17:52Z</time>
      </trkpt>
      <trkpt lat="48.9411" lon="-0.46319">
        <ele>110</ele>
        <time>2023-11-02T17:18:18Z</time>
      </trkpt>
      <trkpt lat="48.94098" lon="-0.46316">
        <ele>113</ele>
        <time>2023-11-02T17:18:35Z</time>
      </trkpt>
      <trkpt lat="48.94087" lon="-0.46301">
        <ele>115</ele>
        <time>2023-11-02T17:18:54Z</time>
      </trkpt>
      <trkpt lat="48.94078" lon="-0.46278">
        <ele>116</ele>
        <time>2023-11-02T17:19:18Z</time>
      </trkpt>
      <trkpt lat="48.9405" lon="-0.46273">
        <ele>123</ele>
        <time>2023-11-02T17:19:56Z</time>
      </trkpt>
      <trkpt lat="48.94039" lon="-0.46263">
        <ele>126</ele>
        <time>2023-11-02T17:20:13Z</time>
      </trkpt>
      <trkpt lat="48.94023" lon="-0.46247">
        <ele>130</ele>
        <time>2023-11-02T17:20:38Z</time>
      </trkpt>
      <trkpt lat="48.94014" lon="-0.46227">
        <ele>131</ele>
        <time>2023-11-02T17:20:59Z</time>
      </trkpt>
      <trkpt lat="48.93983" lon="-0.4619">
        <ele>135</ele>
        <time>2023-11-02T17:21:52Z</time>
      </trkpt>
      <trkpt lat="48.93988" lon="-0.46184">
        <ele>134</ele>
        <time>2023-11-02T17:22:00Z</time>
      </trkpt>
      <trkpt lat="48.93983" lon="-0.46182">
        <ele>134</ele>
        <time>2023-11-02T17:22:07Z</time>
      </trkpt>
      <trkpt lat="48.93981" lon="-0.46135">
        <ele>130</ele>
        <time>2023-11-02T17:22:49Z</time>
      </trkpt>
      <trkpt lat="48.93968" lon="-0.46089">
        <ele>128</ele>
        <time>2023-11-02T17:23:33Z</time>
      </trkpt>
      <trkpt lat="48.93955" lon="-0.46066">
        <ele>128</ele>
        <time>2023-11-02T17:23:59Z</time>
      </trkpt>
      <trkpt lat="48.93923" lon="-0.46047">
        <ele>129</ele>
        <time>2023-11-02T17:24:45Z</time>
      </trkpt>
      <trkpt lat="48.93904" lon="-0.46023">
        <ele>129</ele>
        <time>2023-11-02T17:25:18Z</time>
      </trkpt>
      <trkpt lat="48.93894" lon="-0.46019">
        <ele>129</ele>
        <time>2023-11-02T17:25:32Z</time>
      </trkpt>
      <trkpt lat="48.93856" lon="-0.46029">
        <ele>133</ele>
        <time>2023-11-02T17:26:23Z</time>
      </trkpt>
      <trkpt lat="48.9384" lon="-0.46053">
        <ele>137</ele>
        <time>2023-11-02T17:26:53Z</time>
      </trkpt>
      <trkpt lat="48.93832" lon="-0.46077">
        <ele>140</ele>
        <time>2023-11-02T17:27:17Z</time>
      </trkpt>
      <trkpt lat="48.93823" lon="-0.46075">
        <ele>140</ele>
        <time>2023-11-02T17:27:29Z</time>
      </trkpt>
      <trkpt lat="48.93818" lon="-0.46067">
        <ele>140</ele>
        <time>2023-11-02T17:27:39Z</time>
      </trkpt>
      <trkpt lat="48.93809" lon="-0.46067">
        <ele>141</ele>
        <time>2023-11-02T17:27:51Z</time>
      </trkpt>
      <trkpt lat="48.93788" lon="-0.46079">
        <ele>145</ele>
        <time>2023-11-02T17:28:21Z</time>
      </trkpt>
      <trkpt lat="48.9377" lon="-0.46116">
        <ele>151</ele>
        <time>2023-11-02T17:29:01Z</time>
      </trkpt>
      <trkpt lat="48.93765" lon="-0.46109">
        <ele>151</ele>
        <time>2023-11-02T17:29:10Z</time>
      </trkpt>
      <trkpt lat="48.93762" lon="-0.46116">
        <ele>152</ele>
        <time>2023-11-02T17:29:17Z</time>
      </trkpt>
      <trkpt lat="48.93744" lon="-0.46101">
        <ele>152</ele>
        <time>2023-11-02T17:29:45Z</time>
      </trkpt>
      <trkpt lat="48.93718" lon="-0.46093">
        <ele>153</ele>
        <time>2023-11-02T17:30:20Z</time>
      </trkpt>
      <trkpt lat="48.93713" lon="-0.46087">
        <ele>153</ele>
        <time>2023-11-02T17:30:29Z</time>
      </trkpt>
      <trkpt lat="48.93706" lon="-0.46087">
        <ele>153</ele>
        <time>2023-11-02T17:30:38Z</time>
      </trkpt>
      <trkpt lat="48.93686" lon="-0.46099">
        <ele>155</ele>
        <time>2023-11-02T17:31:07Z</time>
      </trkpt>
      <trkpt lat="48.93669" lon="-0.46096">
        <ele>156</ele>
        <time>2023-11-02T17:31:29Z</time>
      </trkpt>
      <trkpt lat="48.93658" lon="-0.46093">
        <ele>156</ele>
        <time>2023-11-02T17:31:44Z</time>
      </trkpt>
      <trkpt lat="48.93645" lon="-0.46079">
        <ele>155</ele>
        <time>2023-11-02T17:32:06Z</time>
      </trkpt>
      <trkpt lat="48.9363" lon="-0.46082">
        <ele>156</ele>
        <time>2023-11-02T17:32:26Z</time>
      </trkpt>
      <trkpt lat="48.93598" lon="-0.46073">
        <ele>156</ele>
        <time>2023-11-02T17:33:09Z</time>
      </trkpt>
      <trkpt lat="48.9358" lon="-0.46063">
        <ele>156</ele>
        <time>2023-11-02T17:33:35Z</time>
      </trkpt>
      <trkpt lat="48.9356" lon="-0.46062">
        <ele>156</ele>
        <time>2023-11-02T17:34:01Z</time>
      </trkpt>
      <trkpt lat="48.93546" lon="-0.46066">
        <ele>157</ele>
        <time>2023-11-02T17:34:20Z</time>
      </trkpt>
      <trkpt lat="48.93531" lon="-0.46062">
        <ele>157</ele>
        <time>2023-11-02T17:34:41Z</time>
      </trkpt>
      <trkpt lat="48.93533" lon="-0.46031">
        <ele>153</ele>
        <time>2023-11-02T17:35:08Z</time>
      </trkpt>
      <trkpt lat="48.93528" lon="-0.46026">
        <ele>152</ele>
        <time>2023-11-02T17:35:16Z</time>
      </trkpt>
      <trkpt lat="48.93529" lon="-0.46017">
        <ele>151</ele>
        <time>2023-11-02T17:35:24Z</time>
      </trkpt>
      <trkpt lat="48.93523" lon="-0.46012">
        <ele>151</ele>
        <time>2023-11-02T17:35:33Z</time>
      </trkpt>
      <trkpt lat="48.9353" lon="-0.46001">
        <ele>149</ele>
        <time>2023-11-02T17:35:47Z</time>
      </trkpt>
      <trkpt lat="48.9353" lon="-0.45993">
        <ele>150</ele>
        <time>2023-11-02T17:35:54Z</time>
      </trkpt>
      <trkpt lat="48.93511" lon="-0.4597">
        <ele>151</ele>
        <time>2023-11-02T17:36:26Z</time>
      </trkpt>
      <trkpt lat="48.93481" lon="-0.45967">
        <ele>152</ele>
        <time>2023-11-02T17:37:06Z</time>
      </trkpt>
      <trkpt lat="48.93454" lon="-0.45948">
        <ele>153</ele>
        <time>2023-11-02T17:37:46Z</time>
      </trkpt>
      <trkpt lat="48.93429" lon="-0.45945">
        <ele>153</ele>
        <time>2023-11-02T17:38:19Z</time>
      </trkpt>
      <trkpt lat="48.93403" lon="-0.45935">
        <ele>154</ele>
        <time>2023-11-02T17:38:55Z</time>
      </trkpt>
      <trkpt lat="48.93369" lon="-0.4594">
        <ele>156</ele>
        <time>2023-11-02T17:39:41Z</time>
      </trkpt>
      <trkpt lat="48.93351" lon="-0.45929">
        <ele>158</ele>
        <time>2023-11-02T17:40:07Z</time>
      </trkpt>
      <trkpt lat="48.93317" lon="-0.45919">
        <ele>160</ele>
        <time>2023-11-02T17:40:53Z</time>
      </trkpt>
      <trkpt lat="48.93295" lon="-0.45899">
        <ele>163</ele>
        <time>2023-11-02T17:41:27Z</time>
      </trkpt>
      <trkpt lat="48.93277" lon="-0.45905">
        <ele>164</ele>
        <time>2023-11-02T17:41:52Z</time>
      </trkpt>
      <trkpt lat="48.93248" lon="-0.45897">
        <ele>166</ele>
        <time>2023-11-02T17:42:31Z</time>
      </trkpt>
      <trkpt lat="48.9325" lon="-0.45905">
        <ele>166</ele>
        <time>2023-11-02T17:42:38Z</time>
      </trkpt>
      <trkpt lat="48.93237" lon="-0.45883">
        <ele>168</ele>
        <time>2023-11-02T17:43:04Z</time>
      </trkpt>
      <trkpt lat="48.93196" lon="-0.45858">
        <ele>170</ele>
        <time>2023-11-02T17:44:03Z</time>
      </trkpt>
      <trkpt lat="48.93152" lon="-0.45807">
        <ele>173</ele>
        <time>2023-11-02T17:45:17Z</time>
      </trkpt>
      <trkpt lat="48.93099" lon="-0.45758">
        <ele>175</ele>
        <time>2023-11-02T17:46:40Z</time>
      </trkpt>
      <trkpt lat="48.93071" lon="-0.4572">
        <ele>180</ele>
        <time>2023-11-02T17:47:30Z</time>
      </trkpt>
      <trkpt lat="48.93057" lon="-0.45691">
        <ele>183</ele>
        <time>2023-11-02T17:48:01Z</time>
      </trkpt>
      <trkpt lat="48.93053" lon="-0.45666">
        <ele>185</ele>
        <time>2023-11-02T17:48:24Z</time>
      </trkpt>
      <trkpt lat="48.93036" lon="-0.4562">
        <ele>187</ele>
        <time>2023-11-02T17:49:10Z</time>
      </trkpt>
      <trkpt lat="48.93032" lon="-0.45558">
        <ele>191</ele>
        <time>2023-11-02T17:50:05Z</time>
      </trkpt>
      <trkpt lat="48.93023" lon="-0.45528">
        <ele>192</ele>
        <time>2023-11-02T17:50:34Z</time>
      </trkpt>
      <trkpt lat="48.93019" lon="-0.45496">
        <ele>193</ele>
        <time>2023-11-02T17:51:02Z</time>
      </trkpt>
      <trkpt lat="48.92996" lon="-0.4545">
        <ele>192</ele>
        <time>2023-11-02T17:51:53Z</time>
      </trkpt>
      <trkpt lat="48.92999" lon="-0.45388">
        <ele>194</ele>
        <time>2023-11-02T17:52:48Z</time>
      </trkpt>
      <trkpt lat="48.92994" lon="-0.45369">
        <ele>196</ele>
        <time>2023-11-02T17:53:06Z</time>
      </trkpt>
      <trkpt lat="48.92994" lon="-0.45335">
        <ele>197</ele>
        <time>2023-11-02T17:53:35Z</time>
      </trkpt>
      <trkpt lat="48.92986" lon="-0.45312">
        <ele>199</ele>
        <time>2023-11-02T17:53:58Z</time>
      </trkpt>
      <trkpt lat="48.92978" lon="-0.45304">
        <ele>200</ele>
        <time>2023-11-02T17:54:11Z</time>
      </trkpt>
      <trkpt lat="48.92966" lon="-0.45305">
        <ele>201</ele>
        <time>2023-11-02T17:54:27Z</time>
      </trkpt>
      <trkpt lat="48.92958" lon="-0.45337">
        <ele>200</ele>
        <time>2023-11-02T17:54:57Z</time>
      </trkpt>
      <trkpt lat="48.92932" lon="-0.45388">
        <ele>199</ele>
        <time>2023-11-02T17:55:54Z</time>
      </trkpt>
      <trkpt lat="48.92925" lon="-0.45413">
        <ele>199</ele>
        <time>2023-11-02T17:56:17Z</time>
      </trkpt>
      <trkpt lat="48.92916" lon="-0.45425">
        <ele>199</ele>
        <time>2023-11-02T17:56:33Z</time>
      </trkpt>
      <trkpt lat="48.92896" lon="-0.45423">
        <ele>201</ele>
        <time>2023-11-02T17:57:00Z</time>
      </trkpt>
      <trkpt lat="48.92874" lon="-0.4543">
        <ele>202</ele>
        <time>2023-11-02T17:57:30Z</time>
      </trkpt>
      <trkpt lat="48.92851" lon="-0.45427">
        <ele>204</ele>
        <time>2023-11-02T17:58:01Z</time>
      </trkpt>
      <trkpt lat="48.92783" lon="-0.45447">
        <ele>209</ele>
        <time>2023-11-02T17:59:33Z</time>
      </trkpt>
      <trkpt lat="48.92755" lon="-0.45443">
        <ele>212</ele>
        <time>2023-11-02T18:00:11Z</time>
      </trkpt>
      <trkpt lat="48.92733" lon="-0.45447">
        <ele>213</ele>
        <time>2023-11-02T18:00:40Z</time>
      </trkpt>
      <trkpt lat="48.92679" lon="-0.45431">
        <ele>218</ele>
        <time>2023-11-02T18:01:54Z</time>
      </trkpt>
      <trkpt lat="48.92662" lon="-0.45432">
        <ele>219</ele>
        <time>2023-11-02T18:02:17Z</time>
      </trkpt>
      <trkpt lat="48.92641" lon="-0.45442">
        <ele>220</ele>
        <time>2023-11-02T18:02:46Z</time>
      </trkpt>
      <trkpt lat="48.9263" lon="-0.45434">
        <ele>221</ele>
        <time>2023-11-02T18:03:02Z</time>
      </trkpt>
      <trkpt lat="48.9262" lon="-0.45467">
        <ele>221</ele>
        <time>2023-11-02T18:03:34Z</time>
      </trkpt>
      <trkpt lat="48.92625" lon="-0.45481">
        <ele>220</ele>
        <time>2023-11-02T18:03:48Z</time>
      </trkpt>
      <trkpt lat="48.92615" lon="-0.45475">
        <ele>221</ele>
        <time>2023-11-02T18:04:02Z</time>
      </trkpt>
      <trkpt lat="48.92604" lon="-0.45455">
        <ele>222</ele>
        <time>2023-11-02T18:04:25Z</time>
      </trkpt>
      <trkpt lat="48.92572" lon="-0.45414">
        <ele>224</ele>
        <time>2023-11-02T18:05:21Z</time>
      </trkpt>
      <trkpt lat="48.92563" lon="-0.45412">
        <ele>224</ele>
        <time>2023-11-02T18:05:33Z</time>
      </trkpt>
      <trkpt lat="48.9256" lon="-0.45396">
        <ele>225</ele>
        <time>2023-11-02T18:05:48Z</time>
      </trkpt>
      <trkpt lat="48.92544" lon="-0.45417">
        <ele>225</ele>
        <time>2023-11-02T18:06:16Z</time>
      </trkpt>
      <trkpt lat="48.92549" lon="-0.45426">
        <ele>225</ele>
        <time>2023-11-02T18:06:26Z</time>
      </trkpt>
      <trkpt lat="48.92557" lon="-0.45422">
        <ele>225</ele>
        <time>2023-11-02T18:06:38Z</time>
      </trkpt>
      <trkpt lat="48.92558" lon="-0.45419">
        <ele>225</ele>
        <time>2023-11-02T18:06:40Z</time>
      </trkpt>
      <trkpt lat="48.92554" lon="-0.45422">
        <ele>225</ele>
        <time>2023-11-02T18:06:46Z</time>
      </trkpt>
      <trkpt lat="48.92551" lon="-0.45414">
        <ele>225</ele>
        <time>2023-11-02T18:06:54Z</time>
      </trkpt>
      <trkpt lat="48.92549" lon="-0.45423">
        <ele>225</ele>
        <time>2023-11-02T18:07:03Z</time>
      </trkpt>
      <trkpt lat="48.92546" lon="-0.45423">
        <ele>225</ele>
        <time>2023-11-02T18:07:07Z</time>
      </trkpt>
      <trkpt lat="48.9255" lon="-0.45424">
        <ele>225</ele>
        <time>2023-11-02T18:07:12Z</time>
      </trkpt>
      <trkpt lat="48.92544" lon="-0.45428">
        <ele>226</ele>
        <time>2023-11-02T18:07:21Z</time>
      </trkpt>
      <trkpt lat="48.92541" lon="-0.45426">
        <ele>226</ele>
        <time>2023-11-02T18:07:25Z</time>
      </trkpt>
      <trkpt lat="48.92548" lon="-0.45427">
        <ele>225</ele>
        <time>2023-11-02T18:07:35Z</time>
      </trkpt>
      <trkpt lat="48.9255" lon="-0.45415">
        <ele>225</ele>
        <time>2023-11-02T18:07:46Z</time>
      </trkpt>
      <trkpt lat="48.92549" lon="-0.45429">
        <ele>225</ele>
        <time>2023-11-02T18:07:58Z</time>
      </trkpt>
      <trkpt lat="48.92542" lon="-0.4543">
        <ele>226</ele>
        <time>2023-11-02T18:08:07Z</time>
      </trkpt>
      <trkpt lat="48.92541" lon="-0.45426">
        <ele>226</ele>
        <time>2023-11-02T18:08:11Z</time>
      </trkpt>
      <trkpt lat="48.92546" lon="-0.45421">
        <ele>225</ele>
        <time>2023-11-02T18:08:19Z</time>
      </trkpt>
      <trkpt lat="48.92543" lon="-0.45426">
        <ele>226</ele>
        <time>2023-11-02T18:08:25Z</time>
      </trkpt>
      <trkpt lat="48.92537" lon="-0.45424">
        <ele>226</ele>
        <time>2023-11-02T18:08:33Z</time>
      </trkpt>
      <trkpt lat="48.92545" lon="-0.45419">
        <ele>225</ele>
        <time>2023-11-02T18:08:45Z</time>
      </trkpt>
      <trkpt lat="48.92544" lon="-0.45412">
        <ele>225</ele>
        <time>2023-11-02T18:08:51Z</time>
      </trkpt>
      <trkpt lat="48.92542" lon="-0.45414">
        <ele>226</ele>
        <time>2023-11-02T18:08:54Z</time>
      </trkpt>
      <trkpt lat="48.92544" lon="-0.45432">
        <ele>226</ele>
        <time>2023-11-02T18:09:10Z</time>
      </trkpt>
      <trkpt lat="48.92532" lon="-0.45448">
        <ele>227</ele>
        <time>2023-11-02T18:09:31Z</time>
      </trkpt>
      <trkpt lat="48.92539" lon="-0.45437">
        <ele>226</ele>
        <time>2023-11-02T18:09:45Z</time>
      </trkpt>
      <trkpt lat="48.92538" lon="-0.45423">
        <ele>226</ele>
        <time>2023-11-02T18:09:57Z</time>
      </trkpt>
      <trkpt lat="48.92545" lon="-0.45414">
        <ele>225</ele>
        <time>2023-11-02T18:10:10Z</time>
      </trkpt>
      <trkpt lat="48.92544" lon="-0.45407">
        <ele>226</ele>
        <time>2023-11-02T18:10:16Z</time>
      </trkpt>
      <trkpt lat="48.92555" lon="-0.45388">
        <ele>225</ele>
        <time>2023-11-02T18:10:38Z</time>
      </trkpt>
      <trkpt lat="48.92527" lon="-0.45367">
        <ele>227</ele>
        <time>2023-11-02T18:11:20Z</time>
      </trkpt>
      <trkpt lat="48.92503" lon="-0.45324">
        <ele>228</ele>
        <time>2023-11-02T18:12:09Z</time>
      </trkpt>
      <trkpt lat="48.92496" lon="-0.45317">
        <ele>229</ele>
        <time>2023-11-02T18:12:20Z</time>
      </trkpt>
      <trkpt lat="48.92483" lon="-0.45313">
        <ele>230</ele>
        <time>2023-11-02T18:12:38Z</time>
      </trkpt>
      <trkpt lat="48.92451" lon="-0.45337">
        <ele>231</ele>
        <time>2023-11-02T18:13:26Z</time>
      </trkpt>
      <trkpt lat="48.92335" lon="-0.45487">
        <ele>241</ele>
        <time>2023-11-02T18:16:49Z</time>
      </trkpt>
      <trkpt lat="48.92327" lon="-0.45491">
        <ele>241</ele>
        <time>2023-11-02T18:17:00Z</time>
      </trkpt>
      <trkpt lat="48.92303" lon="-0.45467">
        <ele>240</ele>
        <time>2023-11-02T18:17:38Z</time>
      </trkpt>
      <trkpt lat="48.92262" lon="-0.45397">
        <ele>238</ele>
        <time>2023-11-02T18:19:01Z</time>
      </trkpt>
      <trkpt lat="48.9224" lon="-0.45371">
        <ele>238</ele>
        <time>2023-11-02T18:19:38Z</time>
      </trkpt>
      <trkpt lat="48.92228" lon="-0.4535">
        <ele>238</ele>
        <time>2023-11-02T18:20:02Z</time>
      </trkpt>
      <trkpt lat="48.9222" lon="-0.45329">
        <ele>238</ele>
        <time>2023-11-02T18:20:23Z</time>
      </trkpt>
      <trkpt lat="48.92202" lon="-0.453">
        <ele>239</ele>
        <time>2023-11-02T18:20:58Z</time>
      </trkpt>
      <trkpt lat="48.92187" lon="-0.45249">
        <ele>240</ele>
        <time>2023-11-02T18:21:47Z</time>
      </trkpt>
      <trkpt lat="48.92158" lon="-0.45127">
        <ele>243</ele>
        <time>2023-11-02T18:23:41Z</time>
      </trkpt>
      <trkpt lat="48.92135" lon="-0.44962">
        <ele>247</ele>
        <time>2023-11-02T18:26:09Z</time>
      </trkpt>
      <trkpt lat="48.92127" lon="-0.44936">
        <ele>247</ele>
        <time>2023-11-02T18:26:34Z</time>
      </trkpt>
      <trkpt lat="48.9212" lon="-0.44832">
        <ele>248</ele>
        <time>2023-11-02T18:28:06Z</time>
      </trkpt>
      <trkpt lat="48.921" lon="-0.44745">
        <ele>249</ele>
        <time>2023-11-02T18:29:27Z</time>
      </trkpt>
      <trkpt lat="48.921" lon="-0.44655">
        <ele>252</ele>
        <time>2023-11-02T18:30:46Z</time>
      </trkpt>
      <trkpt lat="48.92093" lon="-0.44603">
        <ele>254</ele>
        <time>2023-11-02T18:31:32Z</time>
      </trkpt>
      <trkpt lat="48.9208" lon="-0.44543">
        <ele>255</ele>
        <time>2023-11-02T18:32:28Z</time>
      </trkpt>
      <trkpt lat="48.9206" lon="-0.44478">
        <ele>256</ele>
        <time>2023-11-02T18:33:30Z</time>
      </trkpt>
      <trkpt lat="48.92015" lon="-0.44363">
        <ele>261</ele>
        <time>2023-11-02T18:35:28Z</time>
      </trkpt>
      <trkpt lat="48.91947" lon="-0.44404">
        <ele>261</ele>
        <time>2023-11-02T18:37:05Z</time>
      </trkpt>
      <trkpt lat="48.91904" lon="-0.44419">
        <ele>261</ele>
        <time>2023-11-02T18:38:04Z</time>
      </trkpt>
      <trkpt lat="48.91858" lon="-0.44421">
        <ele>260</ele>
        <time>2023-11-02T18:39:06Z</time>
      </trkpt>
      <trkpt lat="48.91737" lon="-0.44397">
        <ele>254</ele>
        <time>2023-11-02T18:41:49Z</time>
      </trkpt>
      <trkpt lat="48.91704" lon="-0.44387">
        <ele>251</ele>
        <time>2023-11-02T18:42:33Z</time>
      </trkpt>
      <trkpt lat="48.91676" lon="-0.44385">
        <ele>249</ele>
        <time>2023-11-02T18:43:11Z</time>
      </trkpt>
      <trkpt lat="48.91656" lon="-0.44388">
        <ele>247</ele>
        <time>2023-11-02T18:43:38Z</time>
      </trkpt>
      <trkpt lat="48.91615" lon="-0.44376">
        <ele>243</ele>
        <time>2023-11-02T18:44:33Z</time>
      </trkpt>
      <trkpt lat="48.91523" lon="-0.44379">
        <ele>233</ele>
        <time>2023-11-02T18:46:36Z</time>
      </trkpt>
      <trkpt lat="48.91497" lon="-0.4437">
        <ele>230</ele>
        <time>2023-11-02T18:47:12Z</time>
      </trkpt>
      <trkpt lat="48.91469" lon="-0.44447">
        <ele>222</ele>
        <time>2023-11-02T18:48:29Z</time>
      </trkpt>
      <trkpt lat="48.91469" lon="-0.4448">
        <ele>221</ele>
        <time>2023-11-02T18:48:58Z</time>
      </trkpt>
      <trkpt lat="48.91451" lon="-0.44577">
        <ele>211</ele>
        <time>2023-11-02T18:50:26Z</time>
      </trkpt>
      <trkpt lat="48.91438" lon="-0.44702">
        <ele>202</ele>
        <time>2023-11-02T18:52:17Z</time>
      </trkpt>
      <trkpt lat="48.91404" lon="-0.44835">
        <ele>188</ele>
        <time>2023-11-02T18:54:22Z</time>
      </trkpt>
      <trkpt lat="48.91394" lon="-0.44904">
        <ele>177</ele>
        <time>2023-11-02T18:55:24Z</time>
      </trkpt>
      <trkpt lat="48.91377" lon="-0.44935">
        <ele>172</ele>
        <time>2023-11-02T18:56:00Z</time>
      </trkpt>
      <trkpt lat="48.91338" lon="-0.44967">
        <ele>167</ele>
        <time>2023-11-02T18:56:59Z</time>
      </trkpt>
      <trkpt lat="48.91322" lon="-0.44971">
        <ele>165</ele>
        <time>2023-11-02T18:57:21Z</time>
      </trkpt>
      <trkpt lat="48.91306" lon="-0.44987">
        <ele>162</ele>
        <time>2023-11-02T18:57:46Z</time>
      </trkpt>
      <trkpt lat="48.91277" lon="-0.45026">
        <ele>156</ele>
        <time>2023-11-02T18:58:38Z</time>
      </trkpt>
      <trkpt lat="48.91265" lon="-0.45051">
        <ele>154</ele>
        <time>2023-11-02T18:59:05Z</time>
      </trkpt>
      <trkpt lat="48.91259" lon="-0.4508">
        <ele>151</ele>
        <time>2023-11-02T18:59:32Z</time>
      </trkpt>
      <trkpt lat="48.91245" lon="-0.45116">
        <ele>147</ele>
        <time>2023-11-02T19:00:08Z</time>
      </trkpt>
      <trkpt lat="48.91252" lon="-0.45182">
        <ele>142</ele>
        <time>2023-11-02T19:01:07Z</time>
      </trkpt>
      <trkpt lat="48.91261" lon="-0.45219">
        <ele>139</ele>
        <time>2023-11-02T19:01:42Z</time>
      </trkpt>
      <trkpt lat="48.91256" lon="-0.45218">
        <ele>139</ele>
        <time>2023-11-02T19:01:48Z</time>
      </trkpt>
      <trkpt lat="48.91219" lon="-0.45175">
        <ele>136</ele>
        <time>2023-11-02T19:02:50Z</time>
      </trkpt>
      <trkpt lat="48.91194" lon="-0.45122">
        <ele>136</ele>
        <time>2023-11-02T19:03:48Z</time>
      </trkpt>
      <trkpt lat="48.91181" lon="-0.45106">
        <ele>135</ele>
        <time>2023-11-02T19:04:10Z</time>
      </trkpt>
      <trkpt lat="48.91136" lon="-0.45091">
        <ele>131</ele>
        <time>2023-11-02T19:05:11Z</time>
      </trkpt>
      <trkpt lat="48.91131" lon="-0.45086">
        <ele>131</ele>
        <time>2023-11-02T19:05:19Z</time>
      </trkpt>
      <trkpt lat="48.91117" lon="-0.45085">
        <ele>130</ele>
        <time>2023-11-02T19:05:38Z</time>
      </trkpt>
      <trkpt lat="48.91091" lon="-0.45093">
        <ele>129</ele>
        <time>2023-11-02T19:06:13Z</time>
      </trkpt>
      <trkpt lat="48.91079" lon="-0.45091">
        <ele>129</ele>
        <time>2023-11-02T19:06:30Z</time>
      </trkpt>
      <trkpt lat="48.91007" lon="-0.45056">
        <ele>142</ele>
        <time>2023-11-02T19:08:10Z</time>
      </trkpt>
      <trkpt lat="48.90993" lon="-0.4506">
        <ele>144</ele>
        <time>2023-11-02T19:08:29Z</time>
      </trkpt>
      <trkpt lat="48.90968" lon="-0.45086">
        <ele>146</ele>
        <time>2023-11-02T19:09:10Z</time>
      </trkpt>
      <trkpt lat="48.90969" lon="-0.45078">
        <ele>146</ele>
        <time>2023-11-02T19:09:17Z</time>
      </trkpt>
      <trkpt lat="48.9097" lon="-0.45085">
        <ele>146</ele>
        <time>2023-11-02T19:09:23Z</time>
      </trkpt>
      <trkpt lat="48.90964" lon="-0.45092">
        <ele>147</ele>
        <time>2023-11-02T19:09:33Z</time>
      </trkpt>
      <trkpt lat="48.90945" lon="-0.45096">
        <ele>148</ele>
        <time>2023-11-02T19:09:59Z</time>
      </trkpt>
      <trkpt lat="48.90929" lon="-0.45109">
        <ele>148</ele>
        <time>2023-11-02T19:10:23Z</time>
      </trkpt>
      <trkpt lat="48.9089" lon="-0.45118">
        <ele>143</ele>
        <time>2023-11-02T19:11:16Z</time>
      </trkpt>
      <trkpt lat="48.90868" lon="-0.4511">
        <ele>140</ele>
        <time>2023-11-02T19:11:46Z</time>
      </trkpt>
      <trkpt lat="48.90811" lon="-0.45048">
        <ele>142</ele>
        <time>2023-11-02T19:13:19Z</time>
      </trkpt>
      <trkpt lat="48.90758" lon="-0.45026">
        <ele>137</ele>
        <time>2023-11-02T19:14:33Z</time>
      </trkpt>
      <trkpt lat="48.90646" lon="-0.4504">
        <ele>121</ele>
        <time>2023-11-02T19:17:03Z</time>
      </trkpt>
      <trkpt lat="48.906" lon="-0.45037">
        <ele>116</ele>
        <time>2023-11-02T19:18:04Z</time>
      </trkpt>
      <trkpt lat="48.90568" lon="-0.45042">
        <ele>112</ele>
        <time>2023-11-02T19:18:47Z</time>
      </trkpt>
      <trkpt lat="48.90545" lon="-0.45036">
        <ele>111</ele>
        <time>2023-11-02T19:19:18Z</time>
      </trkpt>
      <trkpt lat="48.90505" lon="-0.45034">
        <ele>108</ele>
        <time>2023-11-02T19:20:12Z</time>
      </trkpt>
      <trkpt lat="48.9047" lon="-0.45022">
        <ele>105</ele>
        <time>2023-11-02T19:21:00Z</time>
      </trkpt>
      <trkpt lat="48.90443" lon="-0.45025">
        <ele>103</ele>
        <time>2023-11-02T19:21:36Z</time>
      </trkpt>
      <trkpt lat="48.90419" lon="-0.45019">
        <ele>101</ele>
        <time>2023-11-02T19:22:08Z</time>
      </trkpt>
      <trkpt lat="48.90405" lon="-0.45021">
        <ele>99</ele>
        <time>2023-11-02T19:22:27Z</time>
      </trkpt>
      <trkpt lat="48.90383" lon="-0.45057">
        <ele>95</ele>
        <time>2023-11-02T19:23:10Z</time>
      </trkpt>
      <trkpt lat="48.90377" lon="-0.4506">
        <ele>95</ele>
        <time>2023-11-02T19:23:18Z</time>
      </trkpt>
      <trkpt lat="48.9037" lon="-0.45054">
        <ele>94</ele>
        <time>2023-11-02T19:23:29Z</time>
      </trkpt>
      <trkpt lat="48.90362" lon="-0.45025">
        <ele>95</ele>
        <time>2023-11-02T19:23:57Z</time>
      </trkpt>
      <trkpt lat="48.90356" lon="-0.45018">
        <ele>95</ele>
        <time>2023-11-02T19:24:07Z</time>
      </trkpt>
      <trkpt lat="48.90343" lon="-0.45015">
        <ele>95</ele>
        <time>2023-11-02T19:24:24Z</time>
      </trkpt>
      <trkpt lat="48.90329" lon="-0.45029">
        <ele>93</ele>
        <time>2023-11-02T19:24:47Z</time>
      </trkpt>
      <trkpt lat="48.90287" lon="-0.45119">
        <ele>87</ele>
        <time>2023-11-02T19:26:24Z</time>
      </trkpt>
      <trkpt lat="48.9027" lon="-0.45136">
        <ele>87</ele>
        <time>2023-11-02T19:26:51Z</time>
      </trkpt>
      <trkpt lat="48.90251" lon="-0.45144">
        <ele>86</ele>
        <time>2023-11-02T19:27:17Z</time>
      </trkpt>
      <trkpt lat="48.90236" lon="-0.45158">
        <ele>86</ele>
        <time>2023-11-02T19:27:41Z</time>
      </trkpt>
      <trkpt lat="48.9022" lon="-0.45161">
        <ele>86</ele>
        <time>2023-11-02T19:28:02Z</time>
      </trkpt>
      <trkpt lat="48.90153" lon="-0.45222">
        <ele>81</ele>
        <time>2023-11-02T19:29:46Z</time>
      </trkpt>
      <trkpt lat="48.90071" lon="-0.45204">
        <ele>83</ele>
        <time>2023-11-02T19:31:37Z</time>
      </trkpt>
      <trkpt lat="48.90048" lon="-0.4521">
        <ele>82</ele>
        <time>2023-11-02T19:32:08Z</time>
      </trkpt>
      <trkpt lat="48.90001" lon="-0.45209">
        <ele>82</ele>
        <time>2023-11-02T19:33:11Z</time>
      </trkpt>
      <trkpt lat="48.89988" lon="-0.4523">
        <ele>80</ele>
        <time>2023-11-02T19:33:36Z</time>
      </trkpt>
      <trkpt lat="48.8996" lon="-0.45245">
        <ele>79</ele>
        <time>2023-11-02T19:34:16Z</time>
      </trkpt>
      <trkpt lat="48.89916" lon="-0.45255">
        <ele>77</ele>
        <time>2023-11-02T19:35:15Z</time>
      </trkpt>
      <trkpt lat="48.89895" lon="-0.45253">
        <ele>76</ele>
        <time>2023-11-02T19:35:43Z</time>
      </trkpt>
      <trkpt lat="48.89874" lon="-0.45259">
        <ele>74</ele>
        <time>2023-11-02T19:36:12Z</time>
      </trkpt>
      <trkpt lat="48.89863" lon="-0.45255">
        <ele>74</ele>
        <time>2023-11-02T19:36:27Z</time>
      </trkpt>
      <trkpt lat="48.89827" lon="-0.45254">
        <ele>72</ele>
        <time>2023-11-02T19:37:15Z</time>
      </trkpt>
      <trkpt lat="48.89813" lon="-0.45248">
        <ele>71</ele>
        <time>2023-11-02T19:37:34Z</time>
      </trkpt>
      <trkpt lat="48.89801" lon="-0.45249">
        <ele>70</ele>
        <time>2023-11-02T19:37:50Z</time>
      </trkpt>
      <trkpt lat="48.89783" lon="-0.45268">
        <ele>69</ele>
        <time>2023-11-02T19:38:19Z</time>
      </trkpt>
      <trkpt lat="48.89774" lon="-0.45272">
        <ele>68</ele>
        <time>2023-11-02T19:38:32Z</time>
      </trkpt>
      <trkpt lat="48.8977" lon="-0.45266">
        <ele>68</ele>
        <time>2023-11-02T19:38:39Z</time>
      </trkpt>
      <trkpt lat="48.8977" lon="-0.45238">
        <ele>69</ele>
        <time>2023-11-02T19:39:04Z</time>
      </trkpt>
      <trkpt lat="48.89778" lon="-0.45187">
        <ele>70</ele>
        <time>2023-11-02T19:39:50Z</time>
      </trkpt>
      <trkpt lat="48.89774" lon="-0.45175">
        <ele>70</ele>
        <time>2023-11-02T19:40:02Z</time>
      </trkpt>
      <trkpt lat="48.89769" lon="-0.4518">
        <ele>70</ele>
        <time>2023-11-02T19:40:10Z</time>
      </trkpt>
      <trkpt lat="48.89771" lon="-0.45182">
        <ele>70</ele>
        <time>2023-11-02T19:40:13Z</time>
      </trkpt>
      <trkpt lat="48.8977" lon="-0.45179">
        <ele>70</ele>
        <time>2023-11-02T19:40:16Z</time>
      </trkpt>
      <trkpt lat="48.89777" lon="-0.45177">
        <ele>70</ele>
        <time>2023-11-02T19:40:25Z</time>
      </trkpt>
      <trkpt lat="48.89777" lon="-0.4518">
        <ele>70</ele>
        <time>2023-11-02T19:40:28Z</time>
      </trkpt>
      <trkpt lat="48.89774" lon="-0.4518">
        <ele>70</ele>
        <time>2023-11-02T19:40:32Z</time>
      </trkpt>
      <trkpt lat="48.89778" lon="-0.45159">
        <ele>71</ele>
        <time>2023-11-02T19:40:51Z</time>
      </trkpt>
      <trkpt lat="48.89793" lon="-0.45098">
        <ele>72</ele>
        <time>2023-11-02T19:41:48Z</time>
      </trkpt>
      <trkpt lat="48.89789" lon="-0.45045">
        <ele>73</ele>
        <time>2023-11-02T19:42:35Z</time>
      </trkpt>
      <trkpt lat="48.89769" lon="-0.44935">
        <ele>76</ele>
        <time>2023-11-02T19:44:15Z</time>
      </trkpt>
      <trkpt lat="48.89759" lon="-0.44901">
        <ele>76</ele>
        <time>2023-11-02T19:44:48Z</time>
      </trkpt>
      <trkpt lat="48.89745" lon="-0.44885">
        <ele>75</ele>
        <time>2023-11-02T19:45:11Z</time>
      </trkpt>
      <trkpt lat="48.89726" lon="-0.4488">
        <ele>73</ele>
        <time>2023-11-02T19:45:37Z</time>
      </trkpt>
      <trkpt lat="48.89711" lon="-0.44863">
        <ele>71</ele>
        <time>2023-11-02T19:46:02Z</time>
      </trkpt>
      <trkpt lat="48.89708" lon="-0.4482">
        <ele>70</ele>
        <time>2023-11-02T19:46:40Z</time>
      </trkpt>
      <trkpt lat="48.89691" lon="-0.44772">
        <ele>64</ele>
        <time>2023-11-02T19:47:28Z</time>
      </trkpt>
      <trkpt lat="48.89688" lon="-0.4475">
        <ele>63</ele>
        <time>2023-11-02T19:47:47Z</time>
      </trkpt>
      <trkpt lat="48.89698" lon="-0.44732">
        <ele>62</ele>
        <time>2023-11-02T19:48:08Z</time>
      </trkpt>
      <trkpt lat="48.89779" lon="-0.44692">
        <ele>70</ele>
        <time>2023-11-02T19:50:02Z</time>
      </trkpt>
      <trkpt lat="48.89785" lon="-0.44667">
        <ele>69</ele>
        <time>2023-11-02T19:50:25Z</time>
      </trkpt>
      <trkpt lat="48.89776" lon="-0.44654">
        <ele>68</ele>
        <time>2023-11-02T19:50:42Z</time>
      </trkpt>
      <trkpt lat="48.89764" lon="-0.44648">
        <ele>67</ele>
        <time>2023-11-02T19:50:59Z</time>
      </trkpt>
      <trkpt lat="48.89716" lon="-0.4465">
        <ele>58</ele>
        <time>2023-11-02T19:52:03Z</time>
      </trkpt>
      <trkpt lat="48.89698" lon="-0.44645">
        <ele>54</ele>
        <time>2023-11-02T19:52:27Z</time>
      </trkpt>
      <trkpt lat="48.89685" lon="-0.44647">
        <ele>51</ele>
        <time>2023-11-02T19:52:44Z</time>
      </trkpt>
      <trkpt lat="48.8968" lon="-0.44638">
        <ele>50</ele>
        <time>2023-11-02T19:52:55Z</time>
      </trkpt>
      <trkpt lat="48.89682" lon="-0.44624">
        <ele>50</ele>
        <time>2023-11-02T19:53:07Z</time>
      </trkpt>
      <trkpt lat="48.89698" lon="-0.44592">
        <ele>53</ele>
        <time>2023-11-02T19:53:43Z</time>
      </trkpt>
      <trkpt lat="48.89701" lon="-0.44575">
        <ele>54</ele>
        <time>2023-11-02T19:53:58Z</time>
      </trkpt>
      <trkpt lat="48.89701" lon="-0.44486">
        <ele>52</ele>
        <time>2023-11-02T19:55:16Z</time>
      </trkpt>
      <trkpt lat="48.89697" lon="-0.44487">
        <ele>51</ele>
        <time>2023-11-02T19:55:22Z</time>
      </trkpt>
      <trkpt lat="48.89704" lon="-0.44482">
        <ele>53</ele>
        <time>2023-11-02T19:55:32Z</time>
      </trkpt>
      <trkpt lat="48.89707" lon="-0.44473">
        <ele>54</ele>
        <time>2023-11-02T19:55:41Z</time>
      </trkpt>
      <trkpt lat="48.89725" lon="-0.44387">
        <ele>54</ele>
        <time>2023-11-02T19:57:00Z</time>
      </trkpt>
      <trkpt lat="48.89731" lon="-0.44376">
        <ele>55</ele>
        <time>2023-11-02T19:57:12Z</time>
      </trkpt>
      <trkpt lat="48.89731" lon="-0.44386">
        <ele>56</ele>
        <time>2023-11-02T19:57:21Z</time>
      </trkpt>
      <trkpt lat="48.89734" lon="-0.44382">
        <ele>56</ele>
        <time>2023-11-02T19:57:27Z</time>
      </trkpt>
      <trkpt lat="48.89742" lon="-0.44355">
        <ele>57</ele>
        <time>2023-11-02T19:57:53Z</time>
      </trkpt>
      <trkpt lat="48.89736" lon="-0.44324">
        <ele>55</ele>
        <time>2023-11-02T19:58:21Z</time>
      </trkpt>
      <trkpt lat="48.89734" lon="-0.44267">
        <ele>53</ele>
        <time>2023-11-02T19:59:11Z</time>
      </trkpt>
      <trkpt lat="48.89726" lon="-0.4425">
        <ele>51</ele>
        <time>2023-11-02T19:59:29Z</time>
      </trkpt>
      <trkpt lat="48.89722" lon="-0.44251">
        <ele>51</ele>
        <time>2023-11-02T19:59:35Z</time>
      </trkpt>
      <trkpt lat="48.89725" lon="-0.4424">
        <ele>52</ele>
        <time>2023-11-02T19:59:45Z</time>
      </trkpt>
      <trkpt lat="48.89721" lon="-0.44213">
        <ele>54</ele>
        <time>2023-11-02T20:00:09Z</time>
      </trkpt>
      <trkpt lat="48.89692" lon="-0.44145">
        <ele>53</ele>
        <time>2023-11-02T20:01:21Z</time>
      </trkpt>
      <trkpt lat="48.89691" lon="-0.44149">
        <ele>52</ele>
        <time>2023-11-02T20:01:24Z</time>
      </trkpt>
      <trkpt lat="48.89693" lon="-0.44136">
        <ele>54</ele>
        <time>2023-11-02T20:01:36Z</time>
      </trkpt>
      <trkpt lat="48.89691" lon="-0.44138">
        <ele>54</ele>
        <time>2023-11-02T20:01:39Z</time>
      </trkpt>
      <trkpt lat="48.89685" lon="-0.44124">
        <ele>54</ele>
        <time>2023-11-02T20:01:54Z</time>
      </trkpt>
      <trkpt lat="48.89637" lon="-0.44059">
        <ele>51</ele>
        <time>2023-11-02T20:03:20Z</time>
      </trkpt>
      <trkpt lat="48.89621" lon="-0.44047">
        <ele>51</ele>
        <time>2023-11-02T20:03:43Z</time>
      </trkpt>
      <trkpt lat="48.89594" lon="-0.44001">
        <ele>51</ele>
        <time>2023-11-02T20:04:38Z</time>
      </trkpt>
      <trkpt lat="48.89582" lon="-0.43959">
        <ele>54</ele>
        <time>2023-11-02T20:05:18Z</time>
      </trkpt>
      <trkpt lat="48.89578" lon="-0.4391">
        <ele>60</ele>
        <time>2023-11-02T20:06:01Z</time>
      </trkpt>
      <trkpt lat="48.89564" lon="-0.43867">
        <ele>65</ele>
        <time>2023-11-02T20:06:43Z</time>
      </trkpt>
      <trkpt lat="48.89552" lon="-0.438">
        <ele>73</ele>
        <time>2023-11-02T20:07:44Z</time>
      </trkpt>
      <trkpt lat="48.89569" lon="-0.43731">
        <ele>82</ele>
        <time>2023-11-02T20:08:49Z</time>
      </trkpt>
      <trkpt lat="48.8958" lon="-0.43698">
        <ele>85</ele>
        <time>2023-11-02T20:09:21Z</time>
      </trkpt>
      <trkpt lat="48.89585" lon="-0.43694">
        <ele>86</ele>
        <time>2023-11-02T20:09:29Z</time>
      </trkpt>
      <trkpt lat="48.89587" lon="-0.43673">
        <ele>87</ele>
        <time>2023-11-02T20:09:47Z</time>
      </trkpt>
      <trkpt lat="48.89626" lon="-0.43534">
        <ele>85</ele>
        <time>2023-11-02T20:12:00Z</time>
      </trkpt>
      <trkpt lat="48.89635" lon="-0.4348">
        <ele>84</ele>
        <time>2023-11-02T20:12:49Z</time>
      </trkpt>
      <trkpt lat="48.89662" lon="-0.43396">
        <ele>86</ele>
        <time>2023-11-02T20:14:11Z</time>
      </trkpt>
      <trkpt lat="48.89678" lon="-0.43323">
        <ele>88</ele>
        <time>2023-11-02T20:15:18Z</time>
      </trkpt>
      <trkpt lat="48.89705" lon="-0.43257">
        <ele>89</ele>
        <time>2023-11-02T20:16:27Z</time>
      </trkpt>
      <trkpt lat="48.89742" lon="-0.43125">
        <ele>91</ele>
        <time>2023-11-02T20:18:32Z</time>
      </trkpt>
      <trkpt lat="48.89749" lon="-0.43088">
        <ele>92</ele>
        <time>2023-11-02T20:19:06Z</time>
      </trkpt>
      <trkpt lat="48.8974" lon="-0.43065">
        <ele>90</ele>
        <time>2023-11-02T20:19:30Z</time>
      </trkpt>
      <trkpt lat="48.89746" lon="-0.42976">
        <ele>89</ele>
        <time>2023-11-02T20:20:48Z</time>
      </trkpt>
      <trkpt lat="48.89751" lon="-0.42931">
        <ele>88</ele>
        <time>2023-11-02T20:21:28Z</time>
      </trkpt>
      <trkpt lat="48.89763" lon="-0.42891">
        <ele>90</ele>
        <time>2023-11-02T20:22:07Z</time>
      </trkpt>
      <trkpt lat="48.89764" lon="-0.42848">
        <ele>91</ele>
        <time>2023-11-02T20:22:45Z</time>
      </trkpt>
      <trkpt lat="48.89772" lon="-0.42788">
        <ele>93</ele>
        <time>2023-11-02T20:23:38Z</time>
      </trkpt>
      <trkpt lat="48.89768" lon="-0.42689">
        <ele>93</ele>
        <time>2023-11-02T20:25:05Z</time>
      </trkpt>
      <trkpt lat="48.89754" lon="-0.42658">
        <ele>91</ele>
        <time>2023-11-02T20:25:38Z</time>
      </trkpt>
      <trkpt lat="48.89742" lon="-0.42651">
        <ele>91</ele>
        <time>2023-11-02T20:25:55Z</time>
      </trkpt>
      <trkpt lat="48.89711" lon="-0.42636">
        <ele>90</ele>
        <time>2023-11-02T20:26:39Z</time>
      </trkpt>
      <trkpt lat="48.89598" lon="-0.42605">
        <ele>90</ele>
        <time>2023-11-02T20:29:12Z</time>
      </trkpt>
      <trkpt lat="48.8959" lon="-0.42595">
        <ele>91</ele>
        <time>2023-11-02T20:29:26Z</time>
      </trkpt>
      <trkpt lat="48.89585" lon="-0.42575">
        <ele>91</ele>
        <time>2023-11-02T20:29:45Z</time>
      </trkpt>
      <trkpt lat="48.89585" lon="-0.42529">
        <ele>94</ele>
        <time>2023-11-02T20:30:25Z</time>
      </trkpt>
      <trkpt lat="48.89589" lon="-0.42502">
        <ele>96</ele>
        <time>2023-11-02T20:30:49Z</time>
      </trkpt>
      <trkpt lat="48.89585" lon="-0.42455">
        <ele>98</ele>
        <time>2023-11-02T20:31:31Z</time>
      </trkpt>
      <trkpt lat="48.89571" lon="-0.42434">
        <ele>99</ele>
        <time>2023-11-02T20:31:57Z</time>
      </trkpt>
      <trkpt lat="48.89539" lon="-0.42415">
        <ele>103</ele>
        <time>2023-11-02T20:32:43Z</time>
      </trkpt>
      <trkpt lat="48.89525" lon="-0.42401">
        <ele>105</ele>
        <time>2023-11-02T20:33:05Z</time>
      </trkpt>
      <trkpt lat="48.89522" lon="-0.42388">
        <ele>105</ele>
        <time>2023-11-02T20:33:17Z</time>
      </trkpt>
      <trkpt lat="48.8952" lon="-0.42357">
        <ele>107</ele>
        <time>2023-11-02T20:33:45Z</time>
      </trkpt>
      <trkpt lat="48.89529" lon="-0.42279">
        <ele>109</ele>
        <time>2023-11-02T20:34:54Z</time>
      </trkpt>
      <trkpt lat="48.89531" lon="-0.42204">
        <ele>111</ele>
        <time>2023-11-02T20:36:00Z</time>
      </trkpt>
      <trkpt lat="48.89523" lon="-0.42187">
        <ele>112</ele>
        <time>2023-11-02T20:36:18Z</time>
      </trkpt>
      <trkpt lat="48.89506" lon="-0.4217">
        <ele>112</ele>
        <time>2023-11-02T20:36:46Z</time>
      </trkpt>
      <trkpt lat="48.89476" lon="-0.42163">
        <ele>116</ele>
        <time>2023-11-02T20:37:26Z</time>
      </trkpt>
      <trkpt lat="48.89432" lon="-0.42146">
        <ele>122</ele>
        <time>2023-11-02T20:38:27Z</time>
      </trkpt>
      <trkpt lat="48.89417" lon="-0.42128">
        <ele>123</ele>
        <time>2023-11-02T20:38:52Z</time>
      </trkpt>
      <trkpt lat="48.89405" lon="-0.42105">
        <ele>124</ele>
        <time>2023-11-02T20:39:18Z</time>
      </trkpt>
      <trkpt lat="48.89384" lon="-0.42036">
        <ele>123</ele>
        <time>2023-11-02T20:40:25Z</time>
      </trkpt>
      <trkpt lat="48.89371" lon="-0.41974">
        <ele>122</ele>
        <time>2023-11-02T20:41:22Z</time>
      </trkpt>
      <trkpt lat="48.89363" lon="-0.41957">
        <ele>122</ele>
        <time>2023-11-02T20:41:40Z</time>
      </trkpt>
      <trkpt lat="48.89354" lon="-0.41912">
        <ele>121</ele>
        <time>2023-11-02T20:42:21Z</time>
      </trkpt>
      <trkpt lat="48.89346" lon="-0.41902">
        <ele>120</ele>
        <time>2023-11-02T20:42:35Z</time>
      </trkpt>
      <trkpt lat="48.89352" lon="-0.41836">
        <ele>117</ele>
        <time>2023-11-02T20:43:34Z</time>
      </trkpt>
      <trkpt lat="48.8934" lon="-0.41738">
        <ele>115</ele>
        <time>2023-11-02T20:45:01Z</time>
      </trkpt>
      <trkpt lat="48.89341" lon="-0.41694">
        <ele>117</ele>
        <time>2023-11-02T20:45:40Z</time>
      </trkpt>
      <trkpt lat="48.89335" lon="-0.41667">
        <ele>117</ele>
        <time>2023-11-02T20:46:05Z</time>
      </trkpt>
      <trkpt lat="48.89324" lon="-0.41655">
        <ele>113</ele>
        <time>2023-11-02T20:46:23Z</time>
      </trkpt>
      <trkpt lat="48.89274" lon="-0.41639">
        <ele>95</ele>
        <time>2023-11-02T20:47:31Z</time>
      </trkpt>
      <trkpt lat="48.89239" lon="-0.41599">
        <ele>87</ele>
        <time>2023-11-02T20:48:29Z</time>
      </trkpt>
      <trkpt lat="48.89194" lon="-0.41529">
        <ele>78</ele>
        <time>2023-11-02T20:49:55Z</time>
      </trkpt>
      <trkpt lat="48.89172" lon="-0.41486">
        <ele>75</ele>
        <time>2023-11-02T20:50:43Z</time>
      </trkpt>
      <trkpt lat="48.89159" lon="-0.41381">
        <ele>76</ele>
        <time>2023-11-02T20:52:17Z</time>
      </trkpt>
      <trkpt lat="48.89153" lon="-0.41363">
        <ele>75</ele>
        <time>2023-11-02T20:52:34Z</time>
      </trkpt>
      <trkpt lat="48.89147" lon="-0.41359">
        <ele>74</ele>
        <time>2023-11-02T20:52:43Z</time>
      </trkpt>
      <trkpt lat="48.89146" lon="-0.4135">
        <ele>74</ele>
        <time>2023-11-02T20:52:51Z</time>
      </trkpt>
      <trkpt lat="48.8914" lon="-0.41348">
        <ele>73</ele>
        <time>2023-11-02T20:52:59Z</time>
      </trkpt>
      <trkpt lat="48.89131" lon="-0.41356">
        <ele>71</ele>
        <time>2023-11-02T20:53:13Z</time>
      </trkpt>
      <trkpt lat="48.89114" lon="-0.4142">
        <ele>63</ele>
        <time>2023-11-02T20:54:14Z</time>
      </trkpt>
      <trkpt lat="48.89098" lon="-0.41457">
        <ele>57</ele>
        <time>2023-11-02T20:54:53Z</time>
      </trkpt>
      <trkpt lat="48.89088" lon="-0.41448">
        <ele>55</ele>
        <time>2023-11-02T20:55:08Z</time>
      </trkpt>
      <trkpt lat="48.89069" lon="-0.41447">
        <ele>54</ele>
        <time>2023-11-02T20:55:34Z</time>
      </trkpt>
      <trkpt lat="48.89059" lon="-0.41439">
        <ele>55</ele>
        <time>2023-11-02T20:55:49Z</time>
      </trkpt>
      <trkpt lat="48.89048" lon="-0.41439">
        <ele>55</ele>
        <time>2023-11-02T20:56:03Z</time>
      </trkpt>
      <trkpt lat="48.89046" lon="-0.41444">
        <ele>55</ele>
        <time>2023-11-02T20:56:09Z</time>
      </trkpt>
      <trkpt lat="48.8905" lon="-0.41442">
        <ele>55</ele>
        <time>2023-11-02T20:56:14Z</time>
      </trkpt>
      <trkpt lat="48.89049" lon="-0.41446">
        <ele>55</ele>
        <time>2023-11-02T20:56:18Z</time>
      </trkpt>
      <trkpt lat="48.89045" lon="-0.41442">
        <ele>55</ele>
        <time>2023-11-02T20:56:24Z</time>
      </trkpt>
      <trkpt lat="48.89048" lon="-0.41444">
        <ele>55</ele>
        <time>2023-11-02T20:56:29Z</time>
      </trkpt>
      <trkpt lat="48.89025" lon="-0.41449">
        <ele>55</ele>
        <time>2023-11-02T20:57:00Z</time>
      </trkpt>
      <trkpt lat="48.88998" lon="-0.41441">
        <ele>56</ele>
        <time>2023-11-02T20:57:36Z</time>
      </trkpt>
      <trkpt lat="48.8896" lon="-0.41422">
        <ele>58</ele>
        <time>2023-11-02T20:58:30Z</time>
      </trkpt>
      <trkpt lat="48.88938" lon="-0.41423">
        <ele>58</ele>
        <time>2023-11-02T20:58:59Z</time>
      </trkpt>
      <trkpt lat="48.88902" lon="-0.41416">
        <ele>57</ele>
        <time>2023-11-02T20:59:48Z</time>
      </trkpt>
      <trkpt lat="48.88879" lon="-0.41416">
        <ele>55</ele>
        <time>2023-11-02T21:00:18Z</time>
      </trkpt>
      <trkpt lat="48.88856" lon="-0.41404">
        <ele>57</ele>
        <time>2023-11-02T21:00:51Z</time>
      </trkpt>
      <trkpt lat="48.8882" lon="-0.41403">
        <ele>56</ele>
        <time>2023-11-02T21:01:39Z</time>
      </trkpt>
      <trkpt lat="48.88774" lon="-0.41414">
        <ele>56</ele>
        <time>2023-11-02T21:02:41Z</time>
      </trkpt>
      <trkpt lat="48.88764" lon="-0.41423">
        <ele>55</ele>
        <time>2023-11-02T21:02:56Z</time>
      </trkpt>
      <trkpt lat="48.88766" lon="-0.41421">
        <ele>55</ele>
        <time>2023-11-02T21:03:00Z</time>
      </trkpt>
      <trkpt lat="48.88735" lon="-0.41425">
        <ele>57</ele>
        <time>2023-11-02T21:03:41Z</time>
      </trkpt>
      <trkpt lat="48.88602" lon="-0.41487">
        <ele>51</ele>
        <time>2023-11-02T21:06:47Z</time>
      </trkpt>
      <trkpt lat="48.8857" lon="-0.41493">
        <ele>52</ele>
        <time>2023-11-02T21:07:30Z</time>
      </trkpt>
      <trkpt lat="48.88545" lon="-0.41534">
        <ele>53</ele>
        <time>2023-11-02T21:08:19Z</time>
      </trkpt>
      <trkpt lat="48.88518" lon="-0.41609">
        <ele>52</ele>
        <time>2023-11-02T21:09:34Z</time>
      </trkpt>
      <trkpt lat="48.885" lon="-0.41649">
        <ele>51</ele>
        <time>2023-11-02T21:10:16Z</time>
      </trkpt>
      <trkpt lat="48.88477" lon="-0.41687">
        <ele>53</ele>
        <time>2023-11-02T21:11:02Z</time>
      </trkpt>
      <trkpt lat="48.88296" lon="-0.41868">
        <ele>59</ele>
        <time>2023-11-02T21:15:51Z</time>
      </trkpt>
      <trkpt lat="48.88287" lon="-0.41875">
        <ele>59</ele>
        <time>2023-11-02T21:16:04Z</time>
      </trkpt>
      <trkpt lat="48.88246" lon="-0.41887">
        <ele>58</ele>
        <time>2023-11-02T21:17:00Z</time>
      </trkpt>
      <trkpt lat="48.88231" lon="-0.4188">
        <ele>57</ele>
        <time>2023-11-02T21:17:21Z</time>
      </trkpt>
      <trkpt lat="48.88219" lon="-0.41857">
        <ele>57</ele>
        <time>2023-11-02T21:17:47Z</time>
      </trkpt>
      <trkpt lat="48.8821" lon="-0.41793">
        <ele>62</ele>
        <time>2023-11-02T21:18:44Z</time>
      </trkpt>
      <trkpt lat="48.88174" lon="-0.41704">
        <ele>64</ele>
        <time>2023-11-02T21:20:16Z</time>
      </trkpt>
      <trkpt lat="48.88098" lon="-0.41622">
        <ele>57</ele>
        <time>2023-11-02T21:22:20Z</time>
      </trkpt>
      <trkpt lat="48.88088" lon="-0.41594">
        <ele>56</ele>
        <time>2023-11-02T21:22:48Z</time>
      </trkpt>
      <trkpt lat="48.8808" lon="-0.41553">
        <ele>61</ele>
        <time>2023-11-02T21:23:26Z</time>
      </trkpt>
      <trkpt lat="48.88051" lon="-0.41524">
        <ele>60</ele>
        <time>2023-11-02T21:24:12Z</time>
      </trkpt>
      <trkpt lat="48.88044" lon="-0.41508">
        <ele>60</ele>
        <time>2023-11-02T21:24:29Z</time>
      </trkpt>
      <trkpt lat="48.88038" lon="-0.41506">
        <ele>59</ele>
        <time>2023-11-02T21:24:37Z</time>
      </trkpt>
      <trkpt lat="48.88017" lon="-0.41483">
        <ele>57</ele>
        <time>2023-11-02T21:25:12Z</time>
      </trkpt>
      <trkpt lat="48.87981" lon="-0.41426">
        <ele>58</ele>
        <time>2023-11-02T21:26:21Z</time>
      </trkpt>
      <trkpt lat="48.87963" lon="-0.41385">
        <ele>61</ele>
        <time>2023-11-02T21:27:04Z</time>
      </trkpt>
      <trkpt lat="48.87923" lon="-0.41338">
        <ele>59</ele>
        <time>2023-11-02T21:28:12Z</time>
      </trkpt>
      <trkpt lat="48.87909" lon="-0.41326">
        <ele>59</ele>
        <time>2023-11-02T21:28:33Z</time>
      </trkpt>
      <trkpt lat="48.87867" lon="-0.41302">
        <ele>58</ele>
        <time>2023-11-02T21:29:33Z</time>
      </trkpt>
      <trkpt lat="48.87854" lon="-0.41286">
        <ele>58</ele>
        <time>2023-11-02T21:29:55Z</time>
      </trkpt>
      <trkpt lat="48.87831" lon="-0.41275">
        <ele>57</ele>
        <time>2023-11-02T21:30:27Z</time>
      </trkpt>
      <trkpt lat="48.87822" lon="-0.41265">
        <ele>57</ele>
        <time>2023-11-02T21:30:42Z</time>
      </trkpt>
      <trkpt lat="48.87702" lon="-0.4119">
        <ele>53</ele>
        <time>2023-11-02T21:33:35Z</time>
      </trkpt>
      <trkpt lat="48.87601" lon="-0.4112">
        <ele>50</ele>
        <time>2023-11-02T21:36:04Z</time>
      </trkpt>
      <trkpt lat="48.87496" lon="-0.41059">
        <ele>49</ele>
        <time>2023-11-02T21:38:34Z</time>
      </trkpt>
      <trkpt lat="48.87428" lon="-0.41012">
        <ele>51</ele>
        <time>2023-11-02T21:40:13Z</time>
      </trkpt>
      <trkpt lat="48.874" lon="-0.40998">
        <ele>51</ele>
        <time>2023-11-02T21:40:53Z</time>
      </trkpt>
      <trkpt lat="48.87387" lon="-0.40999">
        <ele>50</ele>
        <time>2023-11-02T21:41:10Z</time>
      </trkpt>
      <trkpt lat="48.87374" lon="-0.41059">
        <ele>50</ele>
        <time>2023-11-02T21:42:05Z</time>
      </trkpt>
      <trkpt lat="48.87351" lon="-0.41133">
        <ele>50</ele>
        <time>2023-11-02T21:43:17Z</time>
      </trkpt>
      <trkpt lat="48.87292" lon="-0.41201">
        <ele>51</ele>
        <time>2023-11-02T21:44:56Z</time>
      </trkpt>
      <trkpt lat="48.87259" lon="-0.41262">
        <ele>52</ele>
        <time>2023-11-02T21:46:05Z</time>
      </trkpt>
      <trkpt lat="48.87262" lon="-0.41274">
        <ele>53</ele>
        <time>2023-11-02T21:46:17Z</time>
      </trkpt>
      <trkpt lat="48.8728" lon="-0.41277">
        <ele>54</ele>
        <time>2023-11-02T21:46:41Z</time>
      </trkpt>
      <trkpt lat="48.87307" lon="-0.41292">
        <ele>55</ele>
        <time>2023-11-02T21:47:19Z</time>
      </trkpt>
    </trkseg>
  </trk>
</gpx>